<?xml version="1.0" encoding="UTF-8" standalone="no" ?>
<gpx xmlns="http://www.topografix.com/GPX/1/1" xmlns:xsi="http://www.w3.org/2001/XMLSchema-instance" xsi:schemaLocation="http://www.topografix.com/GPX/1/1 http://www.topografix.com/GPX/1/1/gpx.xsd" version="1.1" creator="VisuGPX - https://www.visugpx.com">
  <metadata>
    <name>Les Alpages du mont d'Or</name>
    <desc><![CDATA[Randonnée pédestre effectuée le 24 aout 2020]]></desc>
  </metadata>
  <trk>
    <name><![CDATA[24 août 2020 à 09:52:24]]></name>
    <trkseg>
      <trkpt lat="46.72491" lon="6.29876">
        <ele>1147</ele>
        <time>2020-08-24T07:52:24Z</time>
      </trkpt>
      <trkpt lat="46.72491" lon="6.29867">
        <ele>1147</ele>
        <time>2020-08-24T07:53:10Z</time>
      </trkpt>
      <trkpt lat="46.72495" lon="6.29861">
        <ele>1148</ele>
        <time>2020-08-24T07:54:31Z</time>
      </trkpt>
      <trkpt lat="46.72502" lon="6.29864">
        <ele>1150</ele>
        <time>2020-08-24T07:55:03Z</time>
      </trkpt>
      <trkpt lat="46.72506" lon="6.29857">
        <ele>1152</ele>
        <time>2020-08-24T07:55:30Z</time>
      </trkpt>
      <trkpt lat="46.72505" lon="6.29849">
        <ele>1149</ele>
        <time>2020-08-24T07:56:10Z</time>
      </trkpt>
      <trkpt lat="46.72494" lon="6.29848">
        <ele>1148</ele>
        <time>2020-08-24T07:56:22Z</time>
      </trkpt>
      <trkpt lat="46.72489" lon="6.29851">
        <ele>1148</ele>
        <time>2020-08-24T07:56:28Z</time>
      </trkpt>
      <trkpt lat="46.72485" lon="6.29844">
        <ele>1148</ele>
        <time>2020-08-24T07:56:50Z</time>
      </trkpt>
      <trkpt lat="46.72477" lon="6.29839">
        <ele>1149</ele>
        <time>2020-08-24T07:57:00Z</time>
      </trkpt>
      <trkpt lat="46.72469" lon="6.29843">
        <ele>1150</ele>
        <time>2020-08-24T07:57:05Z</time>
      </trkpt>
      <trkpt lat="46.72449" lon="6.29842">
        <ele>1150</ele>
        <time>2020-08-24T07:57:24Z</time>
      </trkpt>
      <trkpt lat="46.72422" lon="6.29853">
        <ele>1149</ele>
        <time>2020-08-24T07:57:45Z</time>
      </trkpt>
      <trkpt lat="46.72415" lon="6.29852">
        <ele>1149</ele>
        <time>2020-08-24T07:57:53Z</time>
      </trkpt>
      <trkpt lat="46.72404" lon="6.2986">
        <ele>1148</ele>
        <time>2020-08-24T07:58:04Z</time>
      </trkpt>
      <trkpt lat="46.72392" lon="6.29864">
        <ele>1148</ele>
        <time>2020-08-24T07:58:13Z</time>
      </trkpt>
      <trkpt lat="46.72387" lon="6.29868">
        <ele>1148</ele>
        <time>2020-08-24T07:58:17Z</time>
      </trkpt>
      <trkpt lat="46.72346" lon="6.29882">
        <ele>1149</ele>
        <time>2020-08-24T07:58:54Z</time>
      </trkpt>
      <trkpt lat="46.72309" lon="6.29887">
        <ele>1151</ele>
        <time>2020-08-24T07:59:29Z</time>
      </trkpt>
      <trkpt lat="46.72302" lon="6.29887">
        <ele>1151</ele>
        <time>2020-08-24T07:59:34Z</time>
      </trkpt>
      <trkpt lat="46.72286" lon="6.29892">
        <ele>1151</ele>
        <time>2020-08-24T07:59:47Z</time>
      </trkpt>
      <trkpt lat="46.7228" lon="6.29891">
        <ele>1151</ele>
        <time>2020-08-24T07:59:53Z</time>
      </trkpt>
      <trkpt lat="46.72254" lon="6.29898">
        <ele>1152</ele>
        <time>2020-08-24T08:00:14Z</time>
      </trkpt>
      <trkpt lat="46.72247" lon="6.29913">
        <ele>1152</ele>
        <time>2020-08-24T08:00:22Z</time>
      </trkpt>
      <trkpt lat="46.72205" lon="6.29918">
        <ele>1153</ele>
        <time>2020-08-24T08:00:57Z</time>
      </trkpt>
      <trkpt lat="46.72199" lon="6.2992">
        <ele>1153</ele>
        <time>2020-08-24T08:01:03Z</time>
      </trkpt>
      <trkpt lat="46.72193" lon="6.29917">
        <ele>1153</ele>
        <time>2020-08-24T08:01:08Z</time>
      </trkpt>
      <trkpt lat="46.72187" lon="6.29917">
        <ele>1153</ele>
        <time>2020-08-24T08:01:13Z</time>
      </trkpt>
      <trkpt lat="46.72182" lon="6.2992">
        <ele>1153</ele>
        <time>2020-08-24T08:01:18Z</time>
      </trkpt>
      <trkpt lat="46.72159" lon="6.29919">
        <ele>1154</ele>
        <time>2020-08-24T08:01:37Z</time>
      </trkpt>
      <trkpt lat="46.7214" lon="6.29913">
        <ele>1154</ele>
        <time>2020-08-24T08:01:55Z</time>
      </trkpt>
      <trkpt lat="46.72121" lon="6.2991">
        <ele>1155</ele>
        <time>2020-08-24T08:02:09Z</time>
      </trkpt>
      <trkpt lat="46.7211" lon="6.29913">
        <ele>1155</ele>
        <time>2020-08-24T08:02:18Z</time>
      </trkpt>
      <trkpt lat="46.72104" lon="6.2991">
        <ele>1155</ele>
        <time>2020-08-24T08:02:23Z</time>
      </trkpt>
      <trkpt lat="46.72093" lon="6.29911">
        <ele>1156</ele>
        <time>2020-08-24T08:02:35Z</time>
      </trkpt>
      <trkpt lat="46.72073" lon="6.2991">
        <ele>1157</ele>
        <time>2020-08-24T08:02:51Z</time>
      </trkpt>
      <trkpt lat="46.7205" lon="6.29929">
        <ele>1158</ele>
        <time>2020-08-24T08:03:20Z</time>
      </trkpt>
      <trkpt lat="46.72044" lon="6.29929">
        <ele>1158</ele>
        <time>2020-08-24T08:03:36Z</time>
      </trkpt>
      <trkpt lat="46.72036" lon="6.29929">
        <ele>1159</ele>
        <time>2020-08-24T08:04:27Z</time>
      </trkpt>
      <trkpt lat="46.72023" lon="6.29926">
        <ele>1160</ele>
        <time>2020-08-24T08:04:36Z</time>
      </trkpt>
      <trkpt lat="46.72011" lon="6.29927">
        <ele>1161</ele>
        <time>2020-08-24T08:04:44Z</time>
      </trkpt>
      <trkpt lat="46.72004" lon="6.2993">
        <ele>1161</ele>
        <time>2020-08-24T08:04:50Z</time>
      </trkpt>
      <trkpt lat="46.71997" lon="6.29929">
        <ele>1162</ele>
        <time>2020-08-24T08:04:58Z</time>
      </trkpt>
      <trkpt lat="46.71985" lon="6.29925">
        <ele>1164</ele>
        <time>2020-08-24T08:05:16Z</time>
      </trkpt>
      <trkpt lat="46.71976" lon="6.29929">
        <ele>1166</ele>
        <time>2020-08-24T08:05:32Z</time>
      </trkpt>
      <trkpt lat="46.71962" lon="6.29928">
        <ele>1169</ele>
        <time>2020-08-24T08:05:51Z</time>
      </trkpt>
      <trkpt lat="46.71957" lon="6.29931">
        <ele>1169</ele>
        <time>2020-08-24T08:05:55Z</time>
      </trkpt>
      <trkpt lat="46.71941" lon="6.29931">
        <ele>1171</ele>
        <time>2020-08-24T08:06:12Z</time>
      </trkpt>
      <trkpt lat="46.71933" lon="6.29925">
        <ele>1173</ele>
        <time>2020-08-24T08:06:22Z</time>
      </trkpt>
      <trkpt lat="46.71898" lon="6.29925">
        <ele>1176</ele>
        <time>2020-08-24T08:06:56Z</time>
      </trkpt>
      <trkpt lat="46.71888" lon="6.29928">
        <ele>1176</ele>
        <time>2020-08-24T08:07:08Z</time>
      </trkpt>
      <trkpt lat="46.7188" lon="6.29934">
        <ele>1177</ele>
        <time>2020-08-24T08:07:19Z</time>
      </trkpt>
      <trkpt lat="46.71876" lon="6.2994">
        <ele>1178</ele>
        <time>2020-08-24T08:07:26Z</time>
      </trkpt>
      <trkpt lat="46.71869" lon="6.29952">
        <ele>1179</ele>
        <time>2020-08-24T08:07:38Z</time>
      </trkpt>
      <trkpt lat="46.71864" lon="6.29971">
        <ele>1180</ele>
        <time>2020-08-24T08:07:50Z</time>
      </trkpt>
      <trkpt lat="46.71861" lon="6.29978">
        <ele>1180</ele>
        <time>2020-08-24T08:07:56Z</time>
      </trkpt>
      <trkpt lat="46.71855" lon="6.30014">
        <ele>1182</ele>
        <time>2020-08-24T08:08:19Z</time>
      </trkpt>
      <trkpt lat="46.71837" lon="6.30056">
        <ele>1182</ele>
        <time>2020-08-24T08:08:51Z</time>
      </trkpt>
      <trkpt lat="46.71833" lon="6.30064">
        <ele>1182</ele>
        <time>2020-08-24T08:08:56Z</time>
      </trkpt>
      <trkpt lat="46.7183" lon="6.30071">
        <ele>1183</ele>
        <time>2020-08-24T08:09:02Z</time>
      </trkpt>
      <trkpt lat="46.71826" lon="6.30078">
        <ele>1184</ele>
        <time>2020-08-24T08:09:11Z</time>
      </trkpt>
      <trkpt lat="46.71813" lon="6.30089">
        <ele>1186</ele>
        <time>2020-08-24T08:09:30Z</time>
      </trkpt>
      <trkpt lat="46.71804" lon="6.30088">
        <ele>1188</ele>
        <time>2020-08-24T08:09:43Z</time>
      </trkpt>
      <trkpt lat="46.71798" lon="6.3008">
        <ele>1188</ele>
        <time>2020-08-24T08:09:50Z</time>
      </trkpt>
      <trkpt lat="46.71792" lon="6.30069">
        <ele>1188</ele>
        <time>2020-08-24T08:10:02Z</time>
      </trkpt>
      <trkpt lat="46.71785" lon="6.30046">
        <ele>1187</ele>
        <time>2020-08-24T08:10:18Z</time>
      </trkpt>
      <trkpt lat="46.71777" lon="6.30028">
        <ele>1187</ele>
        <time>2020-08-24T08:10:31Z</time>
      </trkpt>
      <trkpt lat="46.71767" lon="6.30015">
        <ele>1186</ele>
        <time>2020-08-24T08:10:43Z</time>
      </trkpt>
      <trkpt lat="46.71761" lon="6.30014">
        <ele>1186</ele>
        <time>2020-08-24T08:10:47Z</time>
      </trkpt>
      <trkpt lat="46.71756" lon="6.30017">
        <ele>1186</ele>
        <time>2020-08-24T08:10:52Z</time>
      </trkpt>
      <trkpt lat="46.71734" lon="6.30026">
        <ele>1187</ele>
        <time>2020-08-24T08:11:12Z</time>
      </trkpt>
      <trkpt lat="46.71729" lon="6.30026">
        <ele>1188</ele>
        <time>2020-08-24T08:11:26Z</time>
      </trkpt>
      <trkpt lat="46.7172" lon="6.3003">
        <ele>1189</ele>
        <time>2020-08-24T08:11:41Z</time>
      </trkpt>
      <trkpt lat="46.71706" lon="6.30031">
        <ele>1190</ele>
        <time>2020-08-24T08:11:54Z</time>
      </trkpt>
      <trkpt lat="46.71702" lon="6.30036">
        <ele>1191</ele>
        <time>2020-08-24T08:11:58Z</time>
      </trkpt>
      <trkpt lat="46.71694" lon="6.30039">
        <ele>1192</ele>
        <time>2020-08-24T08:12:05Z</time>
      </trkpt>
      <trkpt lat="46.7169" lon="6.30043">
        <ele>1192</ele>
        <time>2020-08-24T08:12:10Z</time>
      </trkpt>
      <trkpt lat="46.71682" lon="6.30056">
        <ele>1194</ele>
        <time>2020-08-24T08:12:21Z</time>
      </trkpt>
      <trkpt lat="46.71672" lon="6.30067">
        <ele>1195</ele>
        <time>2020-08-24T08:12:33Z</time>
      </trkpt>
      <trkpt lat="46.71649" lon="6.30079">
        <ele>1198</ele>
        <time>2020-08-24T08:12:55Z</time>
      </trkpt>
      <trkpt lat="46.71636" lon="6.30095">
        <ele>1199</ele>
        <time>2020-08-24T08:13:09Z</time>
      </trkpt>
      <trkpt lat="46.71621" lon="6.30109">
        <ele>1200</ele>
        <time>2020-08-24T08:13:24Z</time>
      </trkpt>
      <trkpt lat="46.71616" lon="6.30118">
        <ele>1200</ele>
        <time>2020-08-24T08:13:32Z</time>
      </trkpt>
      <trkpt lat="46.7161" lon="6.30121">
        <ele>1201</ele>
        <time>2020-08-24T08:13:37Z</time>
      </trkpt>
      <trkpt lat="46.71605" lon="6.30127">
        <ele>1201</ele>
        <time>2020-08-24T08:13:43Z</time>
      </trkpt>
      <trkpt lat="46.71593" lon="6.30133">
        <ele>1202</ele>
        <time>2020-08-24T08:13:57Z</time>
      </trkpt>
      <trkpt lat="46.71582" lon="6.30134">
        <ele>1203</ele>
        <time>2020-08-24T08:14:10Z</time>
      </trkpt>
      <trkpt lat="46.71579" lon="6.30141">
        <ele>1203</ele>
        <time>2020-08-24T08:14:22Z</time>
      </trkpt>
      <trkpt lat="46.71571" lon="6.30153">
        <ele>1203</ele>
        <time>2020-08-24T08:14:29Z</time>
      </trkpt>
      <trkpt lat="46.71562" lon="6.30197">
        <ele>1203</ele>
        <time>2020-08-24T08:14:57Z</time>
      </trkpt>
      <trkpt lat="46.71562" lon="6.30206">
        <ele>1203</ele>
        <time>2020-08-24T08:15:03Z</time>
      </trkpt>
      <trkpt lat="46.71569" lon="6.3023">
        <ele>1204</ele>
        <time>2020-08-24T08:15:20Z</time>
      </trkpt>
      <trkpt lat="46.71574" lon="6.30245">
        <ele>1204</ele>
        <time>2020-08-24T08:15:30Z</time>
      </trkpt>
      <trkpt lat="46.71578" lon="6.3026">
        <ele>1205</ele>
        <time>2020-08-24T08:15:39Z</time>
      </trkpt>
      <trkpt lat="46.71579" lon="6.30269">
        <ele>1205</ele>
        <time>2020-08-24T08:15:44Z</time>
      </trkpt>
      <trkpt lat="46.71593" lon="6.3032">
        <ele>1205</ele>
        <time>2020-08-24T08:16:18Z</time>
      </trkpt>
      <trkpt lat="46.71597" lon="6.30328">
        <ele>1206</ele>
        <time>2020-08-24T08:16:23Z</time>
      </trkpt>
      <trkpt lat="46.71606" lon="6.30351">
        <ele>1206</ele>
        <time>2020-08-24T08:16:38Z</time>
      </trkpt>
      <trkpt lat="46.71608" lon="6.30363">
        <ele>1206</ele>
        <time>2020-08-24T08:16:47Z</time>
      </trkpt>
      <trkpt lat="46.71611" lon="6.3037">
        <ele>1206</ele>
        <time>2020-08-24T08:16:52Z</time>
      </trkpt>
      <trkpt lat="46.71617" lon="6.30377">
        <ele>1206</ele>
        <time>2020-08-24T08:16:58Z</time>
      </trkpt>
      <trkpt lat="46.71638" lon="6.30389">
        <ele>1207</ele>
        <time>2020-08-24T08:17:21Z</time>
      </trkpt>
      <trkpt lat="46.71649" lon="6.30405">
        <ele>1207</ele>
        <time>2020-08-24T08:17:40Z</time>
      </trkpt>
      <trkpt lat="46.71655" lon="6.30407">
        <ele>1208</ele>
        <time>2020-08-24T08:18:17Z</time>
      </trkpt>
      <trkpt lat="46.71659" lon="6.30413">
        <ele>1208</ele>
        <time>2020-08-24T08:20:17Z</time>
      </trkpt>
      <trkpt lat="46.71652" lon="6.30422">
        <ele>1208</ele>
        <time>2020-08-24T08:20:29Z</time>
      </trkpt>
      <trkpt lat="46.71643" lon="6.30427">
        <ele>1208</ele>
        <time>2020-08-24T08:20:40Z</time>
      </trkpt>
      <trkpt lat="46.71637" lon="6.30429">
        <ele>1208</ele>
        <time>2020-08-24T08:20:45Z</time>
      </trkpt>
      <trkpt lat="46.71624" lon="6.30435">
        <ele>1206</ele>
        <time>2020-08-24T08:21:04Z</time>
      </trkpt>
      <trkpt lat="46.71618" lon="6.30438">
        <ele>1206</ele>
        <time>2020-08-24T08:21:10Z</time>
      </trkpt>
      <trkpt lat="46.71609" lon="6.30446">
        <ele>1205</ele>
        <time>2020-08-24T08:21:21Z</time>
      </trkpt>
      <trkpt lat="46.71604" lon="6.30452">
        <ele>1205</ele>
        <time>2020-08-24T08:21:26Z</time>
      </trkpt>
      <trkpt lat="46.71596" lon="6.30468">
        <ele>1205</ele>
        <time>2020-08-24T08:21:38Z</time>
      </trkpt>
      <trkpt lat="46.71583" lon="6.30493">
        <ele>1204</ele>
        <time>2020-08-24T08:22:10Z</time>
      </trkpt>
      <trkpt lat="46.71562" lon="6.3049">
        <ele>1202</ele>
        <time>2020-08-24T08:22:35Z</time>
      </trkpt>
      <trkpt lat="46.71524" lon="6.30501">
        <ele>1197</ele>
        <time>2020-08-24T08:23:16Z</time>
      </trkpt>
      <trkpt lat="46.71504" lon="6.30504">
        <ele>1196</ele>
        <time>2020-08-24T08:23:36Z</time>
      </trkpt>
      <trkpt lat="46.71487" lon="6.30516">
        <ele>1195</ele>
        <time>2020-08-24T08:23:59Z</time>
      </trkpt>
      <trkpt lat="46.71448" lon="6.30532">
        <ele>1194</ele>
        <time>2020-08-24T08:24:24Z</time>
      </trkpt>
      <trkpt lat="46.71435" lon="6.30551">
        <ele>1194</ele>
        <time>2020-08-24T08:24:42Z</time>
      </trkpt>
      <trkpt lat="46.71422" lon="6.30564">
        <ele>1193</ele>
        <time>2020-08-24T08:24:57Z</time>
      </trkpt>
      <trkpt lat="46.71414" lon="6.30568">
        <ele>1193</ele>
        <time>2020-08-24T08:25:07Z</time>
      </trkpt>
      <trkpt lat="46.71406" lon="6.30582">
        <ele>1194</ele>
        <time>2020-08-24T08:25:17Z</time>
      </trkpt>
      <trkpt lat="46.71401" lon="6.30585">
        <ele>1194</ele>
        <time>2020-08-24T08:25:21Z</time>
      </trkpt>
      <trkpt lat="46.71395" lon="6.30593">
        <ele>1194</ele>
        <time>2020-08-24T08:25:30Z</time>
      </trkpt>
      <trkpt lat="46.71391" lon="6.306">
        <ele>1194</ele>
        <time>2020-08-24T08:25:35Z</time>
      </trkpt>
      <trkpt lat="46.71359" lon="6.30632">
        <ele>1194</ele>
        <time>2020-08-24T08:26:09Z</time>
      </trkpt>
      <trkpt lat="46.71354" lon="6.30636">
        <ele>1194</ele>
        <time>2020-08-24T08:26:14Z</time>
      </trkpt>
      <trkpt lat="46.71326" lon="6.30654">
        <ele>1191</ele>
        <time>2020-08-24T08:26:51Z</time>
      </trkpt>
      <trkpt lat="46.71318" lon="6.30664">
        <ele>1191</ele>
        <time>2020-08-24T08:27:04Z</time>
      </trkpt>
      <trkpt lat="46.7131" lon="6.30666">
        <ele>1191</ele>
        <time>2020-08-24T08:27:10Z</time>
      </trkpt>
      <trkpt lat="46.71304" lon="6.30666">
        <ele>1191</ele>
        <time>2020-08-24T08:27:14Z</time>
      </trkpt>
      <trkpt lat="46.71283" lon="6.30675">
        <ele>1190</ele>
        <time>2020-08-24T08:27:35Z</time>
      </trkpt>
      <trkpt lat="46.71278" lon="6.3068">
        <ele>1190</ele>
        <time>2020-08-24T08:27:38Z</time>
      </trkpt>
      <trkpt lat="46.71273" lon="6.30687">
        <ele>1190</ele>
        <time>2020-08-24T08:27:43Z</time>
      </trkpt>
      <trkpt lat="46.71265" lon="6.30706">
        <ele>1189</ele>
        <time>2020-08-24T08:27:58Z</time>
      </trkpt>
      <trkpt lat="46.71259" lon="6.30716">
        <ele>1189</ele>
        <time>2020-08-24T08:28:10Z</time>
      </trkpt>
      <trkpt lat="46.71244" lon="6.30725">
        <ele>1188</ele>
        <time>2020-08-24T08:28:30Z</time>
      </trkpt>
      <trkpt lat="46.71232" lon="6.30716">
        <ele>1187</ele>
        <time>2020-08-24T08:28:50Z</time>
      </trkpt>
      <trkpt lat="46.71228" lon="6.30711">
        <ele>1187</ele>
        <time>2020-08-24T08:28:55Z</time>
      </trkpt>
      <trkpt lat="46.71217" lon="6.30705">
        <ele>1185</ele>
        <time>2020-08-24T08:29:11Z</time>
      </trkpt>
      <trkpt lat="46.71204" lon="6.30706">
        <ele>1184</ele>
        <time>2020-08-24T08:29:21Z</time>
      </trkpt>
      <trkpt lat="46.71165" lon="6.30705">
        <ele>1183</ele>
        <time>2020-08-24T08:29:53Z</time>
      </trkpt>
      <trkpt lat="46.71157" lon="6.30709">
        <ele>1183</ele>
        <time>2020-08-24T08:30:18Z</time>
      </trkpt>
      <trkpt lat="46.71153" lon="6.30711">
        <ele>1183</ele>
        <time>2020-08-24T08:30:24Z</time>
      </trkpt>
      <trkpt lat="46.7115" lon="6.3072">
        <ele>1183</ele>
        <time>2020-08-24T08:30:34Z</time>
      </trkpt>
      <trkpt lat="46.71143" lon="6.30757">
        <ele>1185</ele>
        <time>2020-08-24T08:31:20Z</time>
      </trkpt>
      <trkpt lat="46.71138" lon="6.30765">
        <ele>1185</ele>
        <time>2020-08-24T08:31:32Z</time>
      </trkpt>
      <trkpt lat="46.71135" lon="6.30773">
        <ele>1185</ele>
        <time>2020-08-24T08:31:44Z</time>
      </trkpt>
      <trkpt lat="46.71128" lon="6.30771">
        <ele>1185</ele>
        <time>2020-08-24T08:32:04Z</time>
      </trkpt>
      <trkpt lat="46.71126" lon="6.30779">
        <ele>1185</ele>
        <time>2020-08-24T08:32:12Z</time>
      </trkpt>
      <trkpt lat="46.71122" lon="6.30786">
        <ele>1185</ele>
        <time>2020-08-24T08:32:18Z</time>
      </trkpt>
      <trkpt lat="46.71118" lon="6.30793">
        <ele>1185</ele>
        <time>2020-08-24T08:32:26Z</time>
      </trkpt>
      <trkpt lat="46.71108" lon="6.30796">
        <ele>1185</ele>
        <time>2020-08-24T08:32:39Z</time>
      </trkpt>
      <trkpt lat="46.71102" lon="6.30796">
        <ele>1186</ele>
        <time>2020-08-24T08:32:45Z</time>
      </trkpt>
      <trkpt lat="46.7109" lon="6.30801">
        <ele>1188</ele>
        <time>2020-08-24T08:33:00Z</time>
      </trkpt>
      <trkpt lat="46.71076" lon="6.3082">
        <ele>1189</ele>
        <time>2020-08-24T08:33:13Z</time>
      </trkpt>
      <trkpt lat="46.71071" lon="6.30824">
        <ele>1188</ele>
        <time>2020-08-24T08:33:16Z</time>
      </trkpt>
      <trkpt lat="46.71059" lon="6.30836">
        <ele>1188</ele>
        <time>2020-08-24T08:33:36Z</time>
      </trkpt>
      <trkpt lat="46.71056" lon="6.30842">
        <ele>1188</ele>
        <time>2020-08-24T08:33:54Z</time>
      </trkpt>
      <trkpt lat="46.71054" lon="6.3085">
        <ele>1188</ele>
        <time>2020-08-24T08:34:01Z</time>
      </trkpt>
      <trkpt lat="46.71047" lon="6.30866">
        <ele>1187</ele>
        <time>2020-08-24T08:34:12Z</time>
      </trkpt>
      <trkpt lat="46.71037" lon="6.30875">
        <ele>1187</ele>
        <time>2020-08-24T08:34:19Z</time>
      </trkpt>
      <trkpt lat="46.71029" lon="6.30886">
        <ele>1187</ele>
        <time>2020-08-24T08:34:27Z</time>
      </trkpt>
      <trkpt lat="46.71015" lon="6.30919">
        <ele>1186</ele>
        <time>2020-08-24T08:34:50Z</time>
      </trkpt>
      <trkpt lat="46.70997" lon="6.30933">
        <ele>1186</ele>
        <time>2020-08-24T08:35:13Z</time>
      </trkpt>
      <trkpt lat="46.70987" lon="6.30934">
        <ele>1185</ele>
        <time>2020-08-24T08:35:24Z</time>
      </trkpt>
      <trkpt lat="46.70982" lon="6.30936">
        <ele>1185</ele>
        <time>2020-08-24T08:35:32Z</time>
      </trkpt>
      <trkpt lat="46.70954" lon="6.3094">
        <ele>1184</ele>
        <time>2020-08-24T08:35:56Z</time>
      </trkpt>
      <trkpt lat="46.70933" lon="6.30949">
        <ele>1183</ele>
        <time>2020-08-24T08:36:15Z</time>
      </trkpt>
      <trkpt lat="46.70919" lon="6.30942">
        <ele>1182</ele>
        <time>2020-08-24T08:36:32Z</time>
      </trkpt>
      <trkpt lat="46.70912" lon="6.30944">
        <ele>1182</ele>
        <time>2020-08-24T08:36:42Z</time>
      </trkpt>
      <trkpt lat="46.70907" lon="6.30941">
        <ele>1182</ele>
        <time>2020-08-24T08:36:47Z</time>
      </trkpt>
      <trkpt lat="46.70893" lon="6.30927">
        <ele>1181</ele>
        <time>2020-08-24T08:37:01Z</time>
      </trkpt>
      <trkpt lat="46.7089" lon="6.30919">
        <ele>1181</ele>
        <time>2020-08-24T08:37:06Z</time>
      </trkpt>
      <trkpt lat="46.70885" lon="6.30914">
        <ele>1181</ele>
        <time>2020-08-24T08:37:11Z</time>
      </trkpt>
      <trkpt lat="46.7088" lon="6.30908">
        <ele>1181</ele>
        <time>2020-08-24T08:37:16Z</time>
      </trkpt>
      <trkpt lat="46.70874" lon="6.30904">
        <ele>1181</ele>
        <time>2020-08-24T08:37:21Z</time>
      </trkpt>
      <trkpt lat="46.70869" lon="6.30904">
        <ele>1181</ele>
        <time>2020-08-24T08:37:27Z</time>
      </trkpt>
      <trkpt lat="46.70863" lon="6.30899">
        <ele>1180</ele>
        <time>2020-08-24T08:37:34Z</time>
      </trkpt>
      <trkpt lat="46.70857" lon="6.30899">
        <ele>1180</ele>
        <time>2020-08-24T08:37:39Z</time>
      </trkpt>
      <trkpt lat="46.70851" lon="6.30901">
        <ele>1180</ele>
        <time>2020-08-24T08:37:44Z</time>
      </trkpt>
      <trkpt lat="46.70847" lon="6.30907">
        <ele>1179</ele>
        <time>2020-08-24T08:37:48Z</time>
      </trkpt>
      <trkpt lat="46.70841" lon="6.30903">
        <ele>1179</ele>
        <time>2020-08-24T08:37:56Z</time>
      </trkpt>
      <trkpt lat="46.70823" lon="6.30893">
        <ele>1178</ele>
        <time>2020-08-24T08:38:13Z</time>
      </trkpt>
      <trkpt lat="46.70808" lon="6.30878">
        <ele>1177</ele>
        <time>2020-08-24T08:38:26Z</time>
      </trkpt>
      <trkpt lat="46.70803" lon="6.30876">
        <ele>1177</ele>
        <time>2020-08-24T08:38:30Z</time>
      </trkpt>
      <trkpt lat="46.70798" lon="6.30872">
        <ele>1177</ele>
        <time>2020-08-24T08:38:34Z</time>
      </trkpt>
      <trkpt lat="46.70792" lon="6.30871">
        <ele>1177</ele>
        <time>2020-08-24T08:38:37Z</time>
      </trkpt>
      <trkpt lat="46.70786" lon="6.30868">
        <ele>1177</ele>
        <time>2020-08-24T08:38:43Z</time>
      </trkpt>
      <trkpt lat="46.70779" lon="6.30859">
        <ele>1177</ele>
        <time>2020-08-24T08:38:56Z</time>
      </trkpt>
      <trkpt lat="46.70769" lon="6.30851">
        <ele>1176</ele>
        <time>2020-08-24T08:39:06Z</time>
      </trkpt>
      <trkpt lat="46.70763" lon="6.30851">
        <ele>1176</ele>
        <time>2020-08-24T08:39:12Z</time>
      </trkpt>
      <trkpt lat="46.70757" lon="6.30849">
        <ele>1177</ele>
        <time>2020-08-24T08:39:17Z</time>
      </trkpt>
      <trkpt lat="46.7075" lon="6.30849">
        <ele>1177</ele>
        <time>2020-08-24T08:39:23Z</time>
      </trkpt>
      <trkpt lat="46.70745" lon="6.30847">
        <ele>1176</ele>
        <time>2020-08-24T08:39:28Z</time>
      </trkpt>
      <trkpt lat="46.70735" lon="6.30837">
        <ele>1175</ele>
        <time>2020-08-24T08:39:41Z</time>
      </trkpt>
      <trkpt lat="46.70729" lon="6.30835">
        <ele>1175</ele>
        <time>2020-08-24T08:39:48Z</time>
      </trkpt>
      <trkpt lat="46.70721" lon="6.3084">
        <ele>1175</ele>
        <time>2020-08-24T08:39:56Z</time>
      </trkpt>
      <trkpt lat="46.70715" lon="6.30839">
        <ele>1175</ele>
        <time>2020-08-24T08:40:02Z</time>
      </trkpt>
      <trkpt lat="46.70708" lon="6.3084">
        <ele>1174</ele>
        <time>2020-08-24T08:40:08Z</time>
      </trkpt>
      <trkpt lat="46.707" lon="6.30838">
        <ele>1174</ele>
        <time>2020-08-24T08:40:19Z</time>
      </trkpt>
      <trkpt lat="46.70688" lon="6.30836">
        <ele>1174</ele>
        <time>2020-08-24T08:40:28Z</time>
      </trkpt>
      <trkpt lat="46.70652" lon="6.30838">
        <ele>1173</ele>
        <time>2020-08-24T08:40:55Z</time>
      </trkpt>
      <trkpt lat="46.70631" lon="6.30847">
        <ele>1172</ele>
        <time>2020-08-24T08:41:15Z</time>
      </trkpt>
      <trkpt lat="46.70625" lon="6.30848">
        <ele>1172</ele>
        <time>2020-08-24T08:41:21Z</time>
      </trkpt>
      <trkpt lat="46.70607" lon="6.30859">
        <ele>1172</ele>
        <time>2020-08-24T08:41:42Z</time>
      </trkpt>
      <trkpt lat="46.70603" lon="6.30866">
        <ele>1171</ele>
        <time>2020-08-24T08:41:58Z</time>
      </trkpt>
      <trkpt lat="46.70602" lon="6.30882">
        <ele>1169</ele>
        <time>2020-08-24T08:42:09Z</time>
      </trkpt>
      <trkpt lat="46.70598" lon="6.30891">
        <ele>1168</ele>
        <time>2020-08-24T08:42:26Z</time>
      </trkpt>
      <trkpt lat="46.70592" lon="6.309">
        <ele>1168</ele>
        <time>2020-08-24T08:42:35Z</time>
      </trkpt>
      <trkpt lat="46.70587" lon="6.30903">
        <ele>1168</ele>
        <time>2020-08-24T08:42:41Z</time>
      </trkpt>
      <trkpt lat="46.70586" lon="6.3089">
        <ele>1170</ele>
        <time>2020-08-24T08:43:01Z</time>
      </trkpt>
      <trkpt lat="46.70593" lon="6.30889">
        <ele>1168</ele>
        <time>2020-08-24T08:43:18Z</time>
      </trkpt>
      <trkpt lat="46.706" lon="6.30887">
        <ele>1170</ele>
        <time>2020-08-24T08:43:33Z</time>
      </trkpt>
      <trkpt lat="46.70607" lon="6.30882">
        <ele>1170</ele>
        <time>2020-08-24T08:44:38Z</time>
      </trkpt>
      <trkpt lat="46.70604" lon="6.30867">
        <ele>1169</ele>
        <time>2020-08-24T08:44:56Z</time>
      </trkpt>
      <trkpt lat="46.70601" lon="6.30861">
        <ele>1169</ele>
        <time>2020-08-24T08:45:04Z</time>
      </trkpt>
      <trkpt lat="46.70594" lon="6.30864">
        <ele>1169</ele>
        <time>2020-08-24T08:45:22Z</time>
      </trkpt>
      <trkpt lat="46.70591" lon="6.30868">
        <ele>1169</ele>
        <time>2020-08-24T08:45:36Z</time>
      </trkpt>
      <trkpt lat="46.70584" lon="6.30868">
        <ele>1169</ele>
        <time>2020-08-24T08:45:48Z</time>
      </trkpt>
      <trkpt lat="46.70578" lon="6.30871">
        <ele>1169</ele>
        <time>2020-08-24T08:46:02Z</time>
      </trkpt>
      <trkpt lat="46.70574" lon="6.30877">
        <ele>1169</ele>
        <time>2020-08-24T08:46:14Z</time>
      </trkpt>
      <trkpt lat="46.70567" lon="6.30884">
        <ele>1168</ele>
        <time>2020-08-24T08:46:26Z</time>
      </trkpt>
      <trkpt lat="46.70556" lon="6.3088">
        <ele>1168</ele>
        <time>2020-08-24T08:46:39Z</time>
      </trkpt>
      <trkpt lat="46.70548" lon="6.30876">
        <ele>1167</ele>
        <time>2020-08-24T08:46:49Z</time>
      </trkpt>
      <trkpt lat="46.70527" lon="6.3086">
        <ele>1167</ele>
        <time>2020-08-24T08:47:22Z</time>
      </trkpt>
      <trkpt lat="46.70522" lon="6.30854">
        <ele>1168</ele>
        <time>2020-08-24T08:47:29Z</time>
      </trkpt>
      <trkpt lat="46.70508" lon="6.30847">
        <ele>1168</ele>
        <time>2020-08-24T08:47:47Z</time>
      </trkpt>
      <trkpt lat="46.70503" lon="6.30843">
        <ele>1169</ele>
        <time>2020-08-24T08:48:05Z</time>
      </trkpt>
      <trkpt lat="46.70496" lon="6.30845">
        <ele>1168</ele>
        <time>2020-08-24T08:48:29Z</time>
      </trkpt>
      <trkpt lat="46.7049" lon="6.30846">
        <ele>1167</ele>
        <time>2020-08-24T08:48:42Z</time>
      </trkpt>
      <trkpt lat="46.70481" lon="6.3085">
        <ele>1167</ele>
        <time>2020-08-24T08:48:55Z</time>
      </trkpt>
      <trkpt lat="46.70475" lon="6.3085">
        <ele>1167</ele>
        <time>2020-08-24T08:49:03Z</time>
      </trkpt>
      <trkpt lat="46.70468" lon="6.30851">
        <ele>1168</ele>
        <time>2020-08-24T08:49:08Z</time>
      </trkpt>
      <trkpt lat="46.70463" lon="6.30849">
        <ele>1167</ele>
        <time>2020-08-24T08:49:13Z</time>
      </trkpt>
      <trkpt lat="46.70448" lon="6.30856">
        <ele>1167</ele>
        <time>2020-08-24T08:49:26Z</time>
      </trkpt>
      <trkpt lat="46.70435" lon="6.30855">
        <ele>1166</ele>
        <time>2020-08-24T08:49:42Z</time>
      </trkpt>
      <trkpt lat="46.70424" lon="6.3085">
        <ele>1166</ele>
        <time>2020-08-24T08:49:53Z</time>
      </trkpt>
      <trkpt lat="46.70418" lon="6.30854">
        <ele>1166</ele>
        <time>2020-08-24T08:49:59Z</time>
      </trkpt>
      <trkpt lat="46.70413" lon="6.30853">
        <ele>1166</ele>
        <time>2020-08-24T08:50:05Z</time>
      </trkpt>
      <trkpt lat="46.70406" lon="6.30856">
        <ele>1165</ele>
        <time>2020-08-24T08:50:11Z</time>
      </trkpt>
      <trkpt lat="46.70401" lon="6.3086">
        <ele>1165</ele>
        <time>2020-08-24T08:50:16Z</time>
      </trkpt>
      <trkpt lat="46.70396" lon="6.30862">
        <ele>1164</ele>
        <time>2020-08-24T08:50:23Z</time>
      </trkpt>
      <trkpt lat="46.70391" lon="6.30859">
        <ele>1164</ele>
        <time>2020-08-24T08:50:30Z</time>
      </trkpt>
      <trkpt lat="46.7038" lon="6.3085">
        <ele>1164</ele>
        <time>2020-08-24T08:50:43Z</time>
      </trkpt>
      <trkpt lat="46.70368" lon="6.30848">
        <ele>1163</ele>
        <time>2020-08-24T08:50:56Z</time>
      </trkpt>
      <trkpt lat="46.7036" lon="6.30846">
        <ele>1164</ele>
        <time>2020-08-24T08:51:08Z</time>
      </trkpt>
      <trkpt lat="46.70354" lon="6.30844">
        <ele>1165</ele>
        <time>2020-08-24T08:51:19Z</time>
      </trkpt>
      <trkpt lat="46.70342" lon="6.30834">
        <ele>1164</ele>
        <time>2020-08-24T08:51:33Z</time>
      </trkpt>
      <trkpt lat="46.70336" lon="6.30825">
        <ele>1164</ele>
        <time>2020-08-24T08:51:46Z</time>
      </trkpt>
      <trkpt lat="46.70328" lon="6.30822">
        <ele>1164</ele>
        <time>2020-08-24T08:51:54Z</time>
      </trkpt>
      <trkpt lat="46.70322" lon="6.30815">
        <ele>1165</ele>
        <time>2020-08-24T08:51:58Z</time>
      </trkpt>
      <trkpt lat="46.70306" lon="6.30805">
        <ele>1165</ele>
        <time>2020-08-24T08:52:14Z</time>
      </trkpt>
      <trkpt lat="46.70295" lon="6.30784">
        <ele>1165</ele>
        <time>2020-08-24T08:52:33Z</time>
      </trkpt>
      <trkpt lat="46.70289" lon="6.30777">
        <ele>1166</ele>
        <time>2020-08-24T08:52:40Z</time>
      </trkpt>
      <trkpt lat="46.7028" lon="6.30772">
        <ele>1166</ele>
        <time>2020-08-24T08:52:49Z</time>
      </trkpt>
      <trkpt lat="46.70271" lon="6.30761">
        <ele>1166</ele>
        <time>2020-08-24T08:53:00Z</time>
      </trkpt>
      <trkpt lat="46.70261" lon="6.30724">
        <ele>1168</ele>
        <time>2020-08-24T08:53:28Z</time>
      </trkpt>
      <trkpt lat="46.70251" lon="6.30711">
        <ele>1168</ele>
        <time>2020-08-24T08:53:41Z</time>
      </trkpt>
      <trkpt lat="46.70247" lon="6.30702">
        <ele>1168</ele>
        <time>2020-08-24T08:53:46Z</time>
      </trkpt>
      <trkpt lat="46.70245" lon="6.30692">
        <ele>1168</ele>
        <time>2020-08-24T08:53:54Z</time>
      </trkpt>
      <trkpt lat="46.70233" lon="6.30674">
        <ele>1167</ele>
        <time>2020-08-24T08:54:11Z</time>
      </trkpt>
      <trkpt lat="46.70214" lon="6.30638">
        <ele>1166</ele>
        <time>2020-08-24T08:54:40Z</time>
      </trkpt>
      <trkpt lat="46.70209" lon="6.30625">
        <ele>1167</ele>
        <time>2020-08-24T08:54:53Z</time>
      </trkpt>
      <trkpt lat="46.70206" lon="6.30617">
        <ele>1167</ele>
        <time>2020-08-24T08:55:01Z</time>
      </trkpt>
      <trkpt lat="46.70205" lon="6.30605">
        <ele>1167</ele>
        <time>2020-08-24T08:55:14Z</time>
      </trkpt>
      <trkpt lat="46.70203" lon="6.30596">
        <ele>1167</ele>
        <time>2020-08-24T08:55:46Z</time>
      </trkpt>
      <trkpt lat="46.70201" lon="6.30582">
        <ele>1167</ele>
        <time>2020-08-24T08:55:57Z</time>
      </trkpt>
      <trkpt lat="46.70191" lon="6.3056">
        <ele>1168</ele>
        <time>2020-08-24T08:56:13Z</time>
      </trkpt>
      <trkpt lat="46.7019" lon="6.30552">
        <ele>1168</ele>
        <time>2020-08-24T08:56:19Z</time>
      </trkpt>
      <trkpt lat="46.70186" lon="6.30539">
        <ele>1168</ele>
        <time>2020-08-24T08:56:30Z</time>
      </trkpt>
      <trkpt lat="46.70184" lon="6.30519">
        <ele>1168</ele>
        <time>2020-08-24T08:56:45Z</time>
      </trkpt>
      <trkpt lat="46.70185" lon="6.30509">
        <ele>1169</ele>
        <time>2020-08-24T08:56:54Z</time>
      </trkpt>
      <trkpt lat="46.70193" lon="6.30491">
        <ele>1169</ele>
        <time>2020-08-24T08:57:10Z</time>
      </trkpt>
      <trkpt lat="46.70194" lon="6.30483">
        <ele>1169</ele>
        <time>2020-08-24T08:57:15Z</time>
      </trkpt>
      <trkpt lat="46.70197" lon="6.30435">
        <ele>1171</ele>
        <time>2020-08-24T08:57:47Z</time>
      </trkpt>
      <trkpt lat="46.70199" lon="6.30416">
        <ele>1171</ele>
        <time>2020-08-24T08:58:00Z</time>
      </trkpt>
      <trkpt lat="46.70196" lon="6.30389">
        <ele>1171</ele>
        <time>2020-08-24T08:58:18Z</time>
      </trkpt>
      <trkpt lat="46.70199" lon="6.30373">
        <ele>1171</ele>
        <time>2020-08-24T08:58:28Z</time>
      </trkpt>
      <trkpt lat="46.70197" lon="6.30357">
        <ele>1171</ele>
        <time>2020-08-24T08:58:38Z</time>
      </trkpt>
      <trkpt lat="46.70199" lon="6.30336">
        <ele>1171</ele>
        <time>2020-08-24T08:58:55Z</time>
      </trkpt>
      <trkpt lat="46.70193" lon="6.3033">
        <ele>1171</ele>
        <time>2020-08-24T08:59:16Z</time>
      </trkpt>
      <trkpt lat="46.70192" lon="6.30318">
        <ele>1170</ele>
        <time>2020-08-24T08:59:26Z</time>
      </trkpt>
      <trkpt lat="46.70193" lon="6.30309">
        <ele>1171</ele>
        <time>2020-08-24T08:59:32Z</time>
      </trkpt>
      <trkpt lat="46.70196" lon="6.30296">
        <ele>1170</ele>
        <time>2020-08-24T08:59:42Z</time>
      </trkpt>
      <trkpt lat="46.70196" lon="6.30288">
        <ele>1170</ele>
        <time>2020-08-24T08:59:48Z</time>
      </trkpt>
      <trkpt lat="46.70204" lon="6.30255">
        <ele>1169</ele>
        <time>2020-08-24T09:00:10Z</time>
      </trkpt>
      <trkpt lat="46.70204" lon="6.30247">
        <ele>1169</ele>
        <time>2020-08-24T09:00:16Z</time>
      </trkpt>
      <trkpt lat="46.70203" lon="6.30239">
        <ele>1169</ele>
        <time>2020-08-24T09:00:22Z</time>
      </trkpt>
      <trkpt lat="46.70206" lon="6.30225">
        <ele>1169</ele>
        <time>2020-08-24T09:00:31Z</time>
      </trkpt>
      <trkpt lat="46.70207" lon="6.30216">
        <ele>1168</ele>
        <time>2020-08-24T09:00:37Z</time>
      </trkpt>
      <trkpt lat="46.70205" lon="6.30208">
        <ele>1168</ele>
        <time>2020-08-24T09:00:42Z</time>
      </trkpt>
      <trkpt lat="46.70206" lon="6.30191">
        <ele>1167</ele>
        <time>2020-08-24T09:00:53Z</time>
      </trkpt>
      <trkpt lat="46.70209" lon="6.30177">
        <ele>1166</ele>
        <time>2020-08-24T09:01:05Z</time>
      </trkpt>
      <trkpt lat="46.70214" lon="6.30156">
        <ele>1166</ele>
        <time>2020-08-24T09:01:18Z</time>
      </trkpt>
      <trkpt lat="46.7022" lon="6.30143">
        <ele>1166</ele>
        <time>2020-08-24T09:01:29Z</time>
      </trkpt>
      <trkpt lat="46.70227" lon="6.3013">
        <ele>1167</ele>
        <time>2020-08-24T09:01:39Z</time>
      </trkpt>
      <trkpt lat="46.7023" lon="6.30119">
        <ele>1166</ele>
        <time>2020-08-24T09:01:47Z</time>
      </trkpt>
      <trkpt lat="46.70239" lon="6.30107">
        <ele>1166</ele>
        <time>2020-08-24T09:01:56Z</time>
      </trkpt>
      <trkpt lat="46.70243" lon="6.30099">
        <ele>1166</ele>
        <time>2020-08-24T09:02:01Z</time>
      </trkpt>
      <trkpt lat="46.70251" lon="6.30078">
        <ele>1166</ele>
        <time>2020-08-24T09:02:18Z</time>
      </trkpt>
      <trkpt lat="46.70268" lon="6.30046">
        <ele>1167</ele>
        <time>2020-08-24T09:02:49Z</time>
      </trkpt>
      <trkpt lat="46.70283" lon="6.30025">
        <ele>1169</ele>
        <time>2020-08-24T09:03:11Z</time>
      </trkpt>
      <trkpt lat="46.70287" lon="6.30018">
        <ele>1169</ele>
        <time>2020-08-24T09:03:21Z</time>
      </trkpt>
      <trkpt lat="46.70293" lon="6.3001">
        <ele>1169</ele>
        <time>2020-08-24T09:03:39Z</time>
      </trkpt>
      <trkpt lat="46.70304" lon="6.30003">
        <ele>1170</ele>
        <time>2020-08-24T09:03:51Z</time>
      </trkpt>
      <trkpt lat="46.70316" lon="6.29981">
        <ele>1170</ele>
        <time>2020-08-24T09:04:11Z</time>
      </trkpt>
      <trkpt lat="46.7032" lon="6.29976">
        <ele>1170</ele>
        <time>2020-08-24T09:04:16Z</time>
      </trkpt>
      <trkpt lat="46.70324" lon="6.29968">
        <ele>1171</ele>
        <time>2020-08-24T09:04:25Z</time>
      </trkpt>
      <trkpt lat="46.70329" lon="6.29963">
        <ele>1171</ele>
        <time>2020-08-24T09:04:32Z</time>
      </trkpt>
      <trkpt lat="46.70361" lon="6.29946">
        <ele>1173</ele>
        <time>2020-08-24T09:05:10Z</time>
      </trkpt>
      <trkpt lat="46.70366" lon="6.29942">
        <ele>1173</ele>
        <time>2020-08-24T09:05:18Z</time>
      </trkpt>
      <trkpt lat="46.70367" lon="6.29928">
        <ele>1173</ele>
        <time>2020-08-24T09:05:32Z</time>
      </trkpt>
      <trkpt lat="46.70361" lon="6.29915">
        <ele>1172</ele>
        <time>2020-08-24T09:05:44Z</time>
      </trkpt>
      <trkpt lat="46.70354" lon="6.29896">
        <ele>1171</ele>
        <time>2020-08-24T09:06:00Z</time>
      </trkpt>
      <trkpt lat="46.70354" lon="6.29886">
        <ele>1170</ele>
        <time>2020-08-24T09:06:08Z</time>
      </trkpt>
      <trkpt lat="46.7035" lon="6.2987">
        <ele>1169</ele>
        <time>2020-08-24T09:06:19Z</time>
      </trkpt>
      <trkpt lat="46.70341" lon="6.29854">
        <ele>1169</ele>
        <time>2020-08-24T09:06:33Z</time>
      </trkpt>
      <trkpt lat="46.70334" lon="6.29835">
        <ele>1168</ele>
        <time>2020-08-24T09:06:49Z</time>
      </trkpt>
      <trkpt lat="46.7033" lon="6.2983">
        <ele>1168</ele>
        <time>2020-08-24T09:07:05Z</time>
      </trkpt>
      <trkpt lat="46.7032" lon="6.2981">
        <ele>1169</ele>
        <time>2020-08-24T09:07:24Z</time>
      </trkpt>
      <trkpt lat="46.7031" lon="6.29798">
        <ele>1172</ele>
        <time>2020-08-24T09:07:56Z</time>
      </trkpt>
      <trkpt lat="46.70306" lon="6.29792">
        <ele>1173</ele>
        <time>2020-08-24T09:08:03Z</time>
      </trkpt>
      <trkpt lat="46.703" lon="6.29793">
        <ele>1173</ele>
        <time>2020-08-24T09:08:15Z</time>
      </trkpt>
      <trkpt lat="46.70291" lon="6.29798">
        <ele>1172</ele>
        <time>2020-08-24T09:08:27Z</time>
      </trkpt>
      <trkpt lat="46.70286" lon="6.29803">
        <ele>1172</ele>
        <time>2020-08-24T09:08:36Z</time>
      </trkpt>
      <trkpt lat="46.70277" lon="6.29803">
        <ele>1172</ele>
        <time>2020-08-24T09:08:54Z</time>
      </trkpt>
      <trkpt lat="46.7027" lon="6.29803">
        <ele>1172</ele>
        <time>2020-08-24T09:10:23Z</time>
      </trkpt>
      <trkpt lat="46.70275" lon="6.29805">
        <ele>1172</ele>
        <time>2020-08-24T09:12:34Z</time>
      </trkpt>
      <trkpt lat="46.70274" lon="6.29805">
        <ele>1172</ele>
        <time>2020-08-24T09:17:21Z</time>
      </trkpt>
      <trkpt lat="46.70254" lon="6.298">
        <ele>1173</ele>
        <time>2020-08-24T09:17:41Z</time>
      </trkpt>
      <trkpt lat="46.70248" lon="6.29802">
        <ele>1173</ele>
        <time>2020-08-24T09:17:51Z</time>
      </trkpt>
      <trkpt lat="46.70234" lon="6.29799">
        <ele>1174</ele>
        <time>2020-08-24T09:18:07Z</time>
      </trkpt>
      <trkpt lat="46.70227" lon="6.29793">
        <ele>1175</ele>
        <time>2020-08-24T09:18:22Z</time>
      </trkpt>
      <trkpt lat="46.70217" lon="6.2979">
        <ele>1177</ele>
        <time>2020-08-24T09:18:36Z</time>
      </trkpt>
      <trkpt lat="46.70204" lon="6.29779">
        <ele>1177</ele>
        <time>2020-08-24T09:18:52Z</time>
      </trkpt>
      <trkpt lat="46.70201" lon="6.29772">
        <ele>1177</ele>
        <time>2020-08-24T09:18:57Z</time>
      </trkpt>
      <trkpt lat="46.70193" lon="6.29763">
        <ele>1178</ele>
        <time>2020-08-24T09:19:09Z</time>
      </trkpt>
      <trkpt lat="46.70188" lon="6.29748">
        <ele>1179</ele>
        <time>2020-08-24T09:19:21Z</time>
      </trkpt>
      <trkpt lat="46.70185" lon="6.29741">
        <ele>1179</ele>
        <time>2020-08-24T09:19:27Z</time>
      </trkpt>
      <trkpt lat="46.70182" lon="6.29733">
        <ele>1180</ele>
        <time>2020-08-24T09:19:35Z</time>
      </trkpt>
      <trkpt lat="46.70161" lon="6.29699">
        <ele>1181</ele>
        <time>2020-08-24T09:20:10Z</time>
      </trkpt>
      <trkpt lat="46.70157" lon="6.29693">
        <ele>1181</ele>
        <time>2020-08-24T09:20:15Z</time>
      </trkpt>
      <trkpt lat="46.7015" lon="6.29675">
        <ele>1181</ele>
        <time>2020-08-24T09:20:30Z</time>
      </trkpt>
      <trkpt lat="46.70149" lon="6.29667">
        <ele>1181</ele>
        <time>2020-08-24T09:20:45Z</time>
      </trkpt>
      <trkpt lat="46.70132" lon="6.29628">
        <ele>1184</ele>
        <time>2020-08-24T09:21:28Z</time>
      </trkpt>
      <trkpt lat="46.70124" lon="6.29618">
        <ele>1184</ele>
        <time>2020-08-24T09:21:42Z</time>
      </trkpt>
      <trkpt lat="46.70118" lon="6.29602">
        <ele>1185</ele>
        <time>2020-08-24T09:21:55Z</time>
      </trkpt>
      <trkpt lat="46.70113" lon="6.29596">
        <ele>1185</ele>
        <time>2020-08-24T09:22:00Z</time>
      </trkpt>
      <trkpt lat="46.70111" lon="6.29589">
        <ele>1185</ele>
        <time>2020-08-24T09:22:06Z</time>
      </trkpt>
      <trkpt lat="46.70106" lon="6.29553">
        <ele>1186</ele>
        <time>2020-08-24T09:22:37Z</time>
      </trkpt>
      <trkpt lat="46.70106" lon="6.29544">
        <ele>1186</ele>
        <time>2020-08-24T09:22:43Z</time>
      </trkpt>
      <trkpt lat="46.70103" lon="6.29529">
        <ele>1186</ele>
        <time>2020-08-24T09:22:55Z</time>
      </trkpt>
      <trkpt lat="46.701" lon="6.29522">
        <ele>1186</ele>
        <time>2020-08-24T09:23:00Z</time>
      </trkpt>
      <trkpt lat="46.70097" lon="6.29501">
        <ele>1185</ele>
        <time>2020-08-24T09:23:17Z</time>
      </trkpt>
      <trkpt lat="46.70096" lon="6.29492">
        <ele>1185</ele>
        <time>2020-08-24T09:23:25Z</time>
      </trkpt>
      <trkpt lat="46.70092" lon="6.29482">
        <ele>1184</ele>
        <time>2020-08-24T09:23:37Z</time>
      </trkpt>
      <trkpt lat="46.70092" lon="6.2946">
        <ele>1182</ele>
        <time>2020-08-24T09:23:56Z</time>
      </trkpt>
      <trkpt lat="46.7009" lon="6.29453">
        <ele>1182</ele>
        <time>2020-08-24T09:24:06Z</time>
      </trkpt>
      <trkpt lat="46.70087" lon="6.29446">
        <ele>1181</ele>
        <time>2020-08-24T09:24:12Z</time>
      </trkpt>
      <trkpt lat="46.70081" lon="6.29431">
        <ele>1179</ele>
        <time>2020-08-24T09:24:32Z</time>
      </trkpt>
      <trkpt lat="46.70081" lon="6.29411">
        <ele>1178</ele>
        <time>2020-08-24T09:24:50Z</time>
      </trkpt>
      <trkpt lat="46.7008" lon="6.29402">
        <ele>1177</ele>
        <time>2020-08-24T09:25:11Z</time>
      </trkpt>
      <trkpt lat="46.70078" lon="6.29394">
        <ele>1175</ele>
        <time>2020-08-24T09:25:23Z</time>
      </trkpt>
      <trkpt lat="46.70078" lon="6.29374">
        <ele>1173</ele>
        <time>2020-08-24T09:26:17Z</time>
      </trkpt>
      <trkpt lat="46.70077" lon="6.29366">
        <ele>1172</ele>
        <time>2020-08-24T09:26:29Z</time>
      </trkpt>
      <trkpt lat="46.70075" lon="6.29358">
        <ele>1170</ele>
        <time>2020-08-24T09:26:48Z</time>
      </trkpt>
      <trkpt lat="46.70067" lon="6.29353">
        <ele>1168</ele>
        <time>2020-08-24T09:27:01Z</time>
      </trkpt>
      <trkpt lat="46.7006" lon="6.29347">
        <ele>1167</ele>
        <time>2020-08-24T09:27:15Z</time>
      </trkpt>
      <trkpt lat="46.70054" lon="6.29339">
        <ele>1166</ele>
        <time>2020-08-24T09:27:26Z</time>
      </trkpt>
      <trkpt lat="46.70048" lon="6.29336">
        <ele>1164</ele>
        <time>2020-08-24T09:27:34Z</time>
      </trkpt>
      <trkpt lat="46.70043" lon="6.2933">
        <ele>1162</ele>
        <time>2020-08-24T09:27:46Z</time>
      </trkpt>
      <trkpt lat="46.70028" lon="6.29303">
        <ele>1158</ele>
        <time>2020-08-24T09:28:16Z</time>
      </trkpt>
      <trkpt lat="46.70016" lon="6.29299">
        <ele>1158</ele>
        <time>2020-08-24T09:28:28Z</time>
      </trkpt>
      <trkpt lat="46.7001" lon="6.29296">
        <ele>1157</ele>
        <time>2020-08-24T09:29:27Z</time>
      </trkpt>
      <trkpt lat="46.70006" lon="6.2929">
        <ele>1157</ele>
        <time>2020-08-24T09:31:21Z</time>
      </trkpt>
      <trkpt lat="46.70005" lon="6.29269">
        <ele>1157</ele>
        <time>2020-08-24T09:31:38Z</time>
      </trkpt>
      <trkpt lat="46.69994" lon="6.29257">
        <ele>1156</ele>
        <time>2020-08-24T09:31:50Z</time>
      </trkpt>
      <trkpt lat="46.69984" lon="6.29251">
        <ele>1157</ele>
        <time>2020-08-24T09:31:59Z</time>
      </trkpt>
      <trkpt lat="46.69976" lon="6.29241">
        <ele>1158</ele>
        <time>2020-08-24T09:32:12Z</time>
      </trkpt>
      <trkpt lat="46.69967" lon="6.29237">
        <ele>1159</ele>
        <time>2020-08-24T09:32:22Z</time>
      </trkpt>
      <trkpt lat="46.69939" lon="6.29243">
        <ele>1161</ele>
        <time>2020-08-24T09:32:50Z</time>
      </trkpt>
      <trkpt lat="46.69931" lon="6.2924">
        <ele>1162</ele>
        <time>2020-08-24T09:33:10Z</time>
      </trkpt>
      <trkpt lat="46.69922" lon="6.29242">
        <ele>1163</ele>
        <time>2020-08-24T09:33:17Z</time>
      </trkpt>
      <trkpt lat="46.69907" lon="6.29236">
        <ele>1165</ele>
        <time>2020-08-24T09:33:31Z</time>
      </trkpt>
      <trkpt lat="46.699" lon="6.29232">
        <ele>1167</ele>
        <time>2020-08-24T09:33:44Z</time>
      </trkpt>
      <trkpt lat="46.69888" lon="6.29232">
        <ele>1168</ele>
        <time>2020-08-24T09:34:02Z</time>
      </trkpt>
      <trkpt lat="46.69879" lon="6.29233">
        <ele>1169</ele>
        <time>2020-08-24T09:34:13Z</time>
      </trkpt>
      <trkpt lat="46.69869" lon="6.29239">
        <ele>1170</ele>
        <time>2020-08-24T09:34:22Z</time>
      </trkpt>
      <trkpt lat="46.69862" lon="6.29239">
        <ele>1171</ele>
        <time>2020-08-24T09:34:29Z</time>
      </trkpt>
      <trkpt lat="46.69855" lon="6.29236">
        <ele>1172</ele>
        <time>2020-08-24T09:34:37Z</time>
      </trkpt>
      <trkpt lat="46.69839" lon="6.29236">
        <ele>1173</ele>
        <time>2020-08-24T09:34:50Z</time>
      </trkpt>
      <trkpt lat="46.69833" lon="6.29232">
        <ele>1174</ele>
        <time>2020-08-24T09:35:11Z</time>
      </trkpt>
      <trkpt lat="46.69825" lon="6.29224">
        <ele>1175</ele>
        <time>2020-08-24T09:35:29Z</time>
      </trkpt>
      <trkpt lat="46.69818" lon="6.29212">
        <ele>1176</ele>
        <time>2020-08-24T09:35:42Z</time>
      </trkpt>
      <trkpt lat="46.69816" lon="6.292">
        <ele>1177</ele>
        <time>2020-08-24T09:35:55Z</time>
      </trkpt>
      <trkpt lat="46.69821" lon="6.29177">
        <ele>1179</ele>
        <time>2020-08-24T09:36:14Z</time>
      </trkpt>
      <trkpt lat="46.69834" lon="6.29155">
        <ele>1182</ele>
        <time>2020-08-24T09:36:47Z</time>
      </trkpt>
      <trkpt lat="46.69853" lon="6.29129">
        <ele>1185</ele>
        <time>2020-08-24T09:37:15Z</time>
      </trkpt>
      <trkpt lat="46.69867" lon="6.29092">
        <ele>1187</ele>
        <time>2020-08-24T09:37:50Z</time>
      </trkpt>
      <trkpt lat="46.69885" lon="6.29065">
        <ele>1189</ele>
        <time>2020-08-24T09:38:12Z</time>
      </trkpt>
      <trkpt lat="46.6989" lon="6.29039">
        <ele>1190</ele>
        <time>2020-08-24T09:38:30Z</time>
      </trkpt>
      <trkpt lat="46.69899" lon="6.2902">
        <ele>1191</ele>
        <time>2020-08-24T09:38:44Z</time>
      </trkpt>
      <trkpt lat="46.6991" lon="6.28971">
        <ele>1194</ele>
        <time>2020-08-24T09:39:16Z</time>
      </trkpt>
      <trkpt lat="46.69905" lon="6.28961">
        <ele>1194</ele>
        <time>2020-08-24T09:39:24Z</time>
      </trkpt>
      <trkpt lat="46.69888" lon="6.28938">
        <ele>1196</ele>
        <time>2020-08-24T09:39:49Z</time>
      </trkpt>
      <trkpt lat="46.69882" lon="6.28935">
        <ele>1196</ele>
        <time>2020-08-24T09:39:54Z</time>
      </trkpt>
      <trkpt lat="46.69876" lon="6.28934">
        <ele>1196</ele>
        <time>2020-08-24T09:39:59Z</time>
      </trkpt>
      <trkpt lat="46.69841" lon="6.28938">
        <ele>1199</ele>
        <time>2020-08-24T09:40:36Z</time>
      </trkpt>
      <trkpt lat="46.69826" lon="6.28922">
        <ele>1201</ele>
        <time>2020-08-24T09:40:56Z</time>
      </trkpt>
      <trkpt lat="46.69823" lon="6.28916">
        <ele>1201</ele>
        <time>2020-08-24T09:41:00Z</time>
      </trkpt>
      <trkpt lat="46.6982" lon="6.28909">
        <ele>1201</ele>
        <time>2020-08-24T09:41:05Z</time>
      </trkpt>
      <trkpt lat="46.69811" lon="6.28897">
        <ele>1202</ele>
        <time>2020-08-24T09:41:17Z</time>
      </trkpt>
      <trkpt lat="46.69808" lon="6.28886">
        <ele>1202</ele>
        <time>2020-08-24T09:41:25Z</time>
      </trkpt>
      <trkpt lat="46.69804" lon="6.28881">
        <ele>1202</ele>
        <time>2020-08-24T09:41:29Z</time>
      </trkpt>
      <trkpt lat="46.69801" lon="6.28874">
        <ele>1202</ele>
        <time>2020-08-24T09:41:37Z</time>
      </trkpt>
      <trkpt lat="46.6979" lon="6.28868">
        <ele>1203</ele>
        <time>2020-08-24T09:41:46Z</time>
      </trkpt>
      <trkpt lat="46.69785" lon="6.28867">
        <ele>1203</ele>
        <time>2020-08-24T09:41:49Z</time>
      </trkpt>
      <trkpt lat="46.6978" lon="6.28858">
        <ele>1203</ele>
        <time>2020-08-24T09:41:57Z</time>
      </trkpt>
      <trkpt lat="46.69776" lon="6.28838">
        <ele>1205</ele>
        <time>2020-08-24T09:42:12Z</time>
      </trkpt>
      <trkpt lat="46.69769" lon="6.28822">
        <ele>1205</ele>
        <time>2020-08-24T09:42:24Z</time>
      </trkpt>
      <trkpt lat="46.69758" lon="6.28808">
        <ele>1204</ele>
        <time>2020-08-24T09:42:37Z</time>
      </trkpt>
      <trkpt lat="46.69733" lon="6.28797">
        <ele>1204</ele>
        <time>2020-08-24T09:42:59Z</time>
      </trkpt>
      <trkpt lat="46.6972" lon="6.28779">
        <ele>1204</ele>
        <time>2020-08-24T09:43:15Z</time>
      </trkpt>
      <trkpt lat="46.69691" lon="6.28755">
        <ele>1204</ele>
        <time>2020-08-24T09:43:43Z</time>
      </trkpt>
      <trkpt lat="46.69658" lon="6.28741">
        <ele>1207</ele>
        <time>2020-08-24T09:44:15Z</time>
      </trkpt>
      <trkpt lat="46.69652" lon="6.28739">
        <ele>1207</ele>
        <time>2020-08-24T09:44:20Z</time>
      </trkpt>
      <trkpt lat="46.69634" lon="6.2871">
        <ele>1208</ele>
        <time>2020-08-24T09:44:44Z</time>
      </trkpt>
      <trkpt lat="46.69632" lon="6.28691">
        <ele>1209</ele>
        <time>2020-08-24T09:44:58Z</time>
      </trkpt>
      <trkpt lat="46.69624" lon="6.28667">
        <ele>1209</ele>
        <time>2020-08-24T09:45:21Z</time>
      </trkpt>
      <trkpt lat="46.69624" lon="6.28657">
        <ele>1208</ele>
        <time>2020-08-24T09:45:39Z</time>
      </trkpt>
      <trkpt lat="46.69621" lon="6.28653">
        <ele>1207</ele>
        <time>2020-08-24T09:47:02Z</time>
      </trkpt>
      <trkpt lat="46.69624" lon="6.28643">
        <ele>1207</ele>
        <time>2020-08-24T09:47:57Z</time>
      </trkpt>
      <trkpt lat="46.69633" lon="6.28624">
        <ele>1208</ele>
        <time>2020-08-24T09:48:14Z</time>
      </trkpt>
      <trkpt lat="46.69641" lon="6.2862">
        <ele>1209</ele>
        <time>2020-08-24T09:48:23Z</time>
      </trkpt>
      <trkpt lat="46.69647" lon="6.28619">
        <ele>1208</ele>
        <time>2020-08-24T09:48:29Z</time>
      </trkpt>
      <trkpt lat="46.69656" lon="6.28623">
        <ele>1210</ele>
        <time>2020-08-24T09:48:41Z</time>
      </trkpt>
      <trkpt lat="46.69661" lon="6.28629">
        <ele>1211</ele>
        <time>2020-08-24T09:48:53Z</time>
      </trkpt>
      <trkpt lat="46.69672" lon="6.28627">
        <ele>1212</ele>
        <time>2020-08-24T09:49:49Z</time>
      </trkpt>
      <trkpt lat="46.69678" lon="6.28628">
        <ele>1211</ele>
        <time>2020-08-24T09:49:55Z</time>
      </trkpt>
      <trkpt lat="46.69686" lon="6.28614">
        <ele>1211</ele>
        <time>2020-08-24T09:50:10Z</time>
      </trkpt>
      <trkpt lat="46.697" lon="6.28607">
        <ele>1212</ele>
        <time>2020-08-24T09:50:25Z</time>
      </trkpt>
      <trkpt lat="46.69716" lon="6.28584">
        <ele>1214</ele>
        <time>2020-08-24T09:50:51Z</time>
      </trkpt>
      <trkpt lat="46.69732" lon="6.28583">
        <ele>1215</ele>
        <time>2020-08-24T09:51:13Z</time>
      </trkpt>
      <trkpt lat="46.69741" lon="6.28582">
        <ele>1215</ele>
        <time>2020-08-24T09:51:43Z</time>
      </trkpt>
      <trkpt lat="46.69741" lon="6.28574">
        <ele>1214</ele>
        <time>2020-08-24T09:52:59Z</time>
      </trkpt>
      <trkpt lat="46.69749" lon="6.28575">
        <ele>1214</ele>
        <time>2020-08-24T09:53:16Z</time>
      </trkpt>
      <trkpt lat="46.69759" lon="6.28581">
        <ele>1214</ele>
        <time>2020-08-24T09:53:31Z</time>
      </trkpt>
      <trkpt lat="46.69768" lon="6.28581">
        <ele>1214</ele>
        <time>2020-08-24T09:53:40Z</time>
      </trkpt>
      <trkpt lat="46.69774" lon="6.28582">
        <ele>1214</ele>
        <time>2020-08-24T09:53:48Z</time>
      </trkpt>
      <trkpt lat="46.69783" lon="6.28588">
        <ele>1214</ele>
        <time>2020-08-24T09:53:59Z</time>
      </trkpt>
      <trkpt lat="46.69795" lon="6.28584">
        <ele>1212</ele>
        <time>2020-08-24T09:54:14Z</time>
      </trkpt>
      <trkpt lat="46.69804" lon="6.2858">
        <ele>1211</ele>
        <time>2020-08-24T09:54:26Z</time>
      </trkpt>
      <trkpt lat="46.69809" lon="6.28582">
        <ele>1210</ele>
        <time>2020-08-24T09:54:32Z</time>
      </trkpt>
      <trkpt lat="46.69816" lon="6.28582">
        <ele>1209</ele>
        <time>2020-08-24T09:54:40Z</time>
      </trkpt>
      <trkpt lat="46.69829" lon="6.28588">
        <ele>1209</ele>
        <time>2020-08-24T09:54:55Z</time>
      </trkpt>
      <trkpt lat="46.69838" lon="6.28593">
        <ele>1209</ele>
        <time>2020-08-24T09:55:07Z</time>
      </trkpt>
      <trkpt lat="46.69849" lon="6.28595">
        <ele>1209</ele>
        <time>2020-08-24T09:55:21Z</time>
      </trkpt>
      <trkpt lat="46.69862" lon="6.28591">
        <ele>1207</ele>
        <time>2020-08-24T09:55:41Z</time>
      </trkpt>
      <trkpt lat="46.69867" lon="6.2859">
        <ele>1207</ele>
        <time>2020-08-24T09:56:05Z</time>
      </trkpt>
      <trkpt lat="46.69873" lon="6.28595">
        <ele>1207</ele>
        <time>2020-08-24T09:56:23Z</time>
      </trkpt>
      <trkpt lat="46.69879" lon="6.28588">
        <ele>1207</ele>
        <time>2020-08-24T09:57:11Z</time>
      </trkpt>
      <trkpt lat="46.69884" lon="6.28592">
        <ele>1207</ele>
        <time>2020-08-24T09:58:41Z</time>
      </trkpt>
      <trkpt lat="46.6989" lon="6.28592">
        <ele>1206</ele>
        <time>2020-08-24T10:00:09Z</time>
      </trkpt>
      <trkpt lat="46.6989" lon="6.28601">
        <ele>1206</ele>
        <time>2020-08-24T10:02:00Z</time>
      </trkpt>
      <trkpt lat="46.69881" lon="6.2855">
        <ele>1208</ele>
        <time>2020-08-24T10:38:34Z</time>
      </trkpt>
      <trkpt lat="46.69867" lon="6.28568">
        <ele>1208</ele>
        <time>2020-08-24T10:39:55Z</time>
      </trkpt>
      <trkpt lat="46.69873" lon="6.28564">
        <ele>1209</ele>
        <time>2020-08-24T10:41:08Z</time>
      </trkpt>
      <trkpt lat="46.69866" lon="6.28557">
        <ele>1210</ele>
        <time>2020-08-24T10:41:30Z</time>
      </trkpt>
      <trkpt lat="46.69871" lon="6.28576">
        <ele>1210</ele>
        <time>2020-08-24T10:42:08Z</time>
      </trkpt>
      <trkpt lat="46.69868" lon="6.28583">
        <ele>1209</ele>
        <time>2020-08-24T10:42:13Z</time>
      </trkpt>
      <trkpt lat="46.69873" lon="6.28592">
        <ele>1209</ele>
        <time>2020-08-24T10:42:40Z</time>
      </trkpt>
      <trkpt lat="46.69877" lon="6.28592">
        <ele>1208</ele>
        <time>2020-08-24T10:43:13Z</time>
      </trkpt>
      <trkpt lat="46.69874" lon="6.28581">
        <ele>1209</ele>
        <time>2020-08-24T10:43:18Z</time>
      </trkpt>
      <trkpt lat="46.69872" lon="6.28572">
        <ele>1209</ele>
        <time>2020-08-24T10:43:42Z</time>
      </trkpt>
      <trkpt lat="46.69877" lon="6.28542">
        <ele>1209</ele>
        <time>2020-08-24T10:44:20Z</time>
      </trkpt>
      <trkpt lat="46.69877" lon="6.28531">
        <ele>1210</ele>
        <time>2020-08-24T10:44:31Z</time>
      </trkpt>
      <trkpt lat="46.69883" lon="6.28514">
        <ele>1210</ele>
        <time>2020-08-24T10:44:45Z</time>
      </trkpt>
      <trkpt lat="46.69888" lon="6.28474">
        <ele>1214</ele>
        <time>2020-08-24T10:45:23Z</time>
      </trkpt>
      <trkpt lat="46.69895" lon="6.2846">
        <ele>1215</ele>
        <time>2020-08-24T10:45:49Z</time>
      </trkpt>
      <trkpt lat="46.699" lon="6.28455">
        <ele>1215</ele>
        <time>2020-08-24T10:45:55Z</time>
      </trkpt>
      <trkpt lat="46.69905" lon="6.28452">
        <ele>1214</ele>
        <time>2020-08-24T10:45:59Z</time>
      </trkpt>
      <trkpt lat="46.69911" lon="6.28452">
        <ele>1214</ele>
        <time>2020-08-24T10:46:08Z</time>
      </trkpt>
      <trkpt lat="46.69932" lon="6.28418">
        <ele>1214</ele>
        <time>2020-08-24T10:46:40Z</time>
      </trkpt>
      <trkpt lat="46.69939" lon="6.28408">
        <ele>1214</ele>
        <time>2020-08-24T10:46:49Z</time>
      </trkpt>
      <trkpt lat="46.69944" lon="6.28404">
        <ele>1214</ele>
        <time>2020-08-24T10:46:55Z</time>
      </trkpt>
      <trkpt lat="46.69947" lon="6.28396">
        <ele>1214</ele>
        <time>2020-08-24T10:47:00Z</time>
      </trkpt>
      <trkpt lat="46.69958" lon="6.28384">
        <ele>1214</ele>
        <time>2020-08-24T10:47:13Z</time>
      </trkpt>
      <trkpt lat="46.69964" lon="6.28381">
        <ele>1214</ele>
        <time>2020-08-24T10:47:19Z</time>
      </trkpt>
      <trkpt lat="46.69968" lon="6.28376">
        <ele>1214</ele>
        <time>2020-08-24T10:47:24Z</time>
      </trkpt>
      <trkpt lat="46.69976" lon="6.28373">
        <ele>1214</ele>
        <time>2020-08-24T10:47:33Z</time>
      </trkpt>
      <trkpt lat="46.69984" lon="6.28375">
        <ele>1214</ele>
        <time>2020-08-24T10:47:41Z</time>
      </trkpt>
      <trkpt lat="46.69989" lon="6.2838">
        <ele>1214</ele>
        <time>2020-08-24T10:47:46Z</time>
      </trkpt>
      <trkpt lat="46.70002" lon="6.28385">
        <ele>1214</ele>
        <time>2020-08-24T10:48:00Z</time>
      </trkpt>
      <trkpt lat="46.70024" lon="6.28378">
        <ele>1214</ele>
        <time>2020-08-24T10:48:20Z</time>
      </trkpt>
      <trkpt lat="46.70035" lon="6.28367">
        <ele>1214</ele>
        <time>2020-08-24T10:48:36Z</time>
      </trkpt>
      <trkpt lat="46.70046" lon="6.2834">
        <ele>1215</ele>
        <time>2020-08-24T10:48:58Z</time>
      </trkpt>
      <trkpt lat="46.70053" lon="6.28317">
        <ele>1217</ele>
        <time>2020-08-24T10:49:27Z</time>
      </trkpt>
      <trkpt lat="46.70052" lon="6.28306">
        <ele>1217</ele>
        <time>2020-08-24T10:49:34Z</time>
      </trkpt>
      <trkpt lat="46.70053" lon="6.28294">
        <ele>1217</ele>
        <time>2020-08-24T10:49:44Z</time>
      </trkpt>
      <trkpt lat="46.70045" lon="6.28272">
        <ele>1218</ele>
        <time>2020-08-24T10:50:04Z</time>
      </trkpt>
      <trkpt lat="46.70037" lon="6.28229">
        <ele>1219</ele>
        <time>2020-08-24T10:50:35Z</time>
      </trkpt>
      <trkpt lat="46.70035" lon="6.2822">
        <ele>1220</ele>
        <time>2020-08-24T10:50:40Z</time>
      </trkpt>
      <trkpt lat="46.70033" lon="6.28212">
        <ele>1220</ele>
        <time>2020-08-24T10:50:46Z</time>
      </trkpt>
      <trkpt lat="46.7003" lon="6.28203">
        <ele>1221</ele>
        <time>2020-08-24T10:50:54Z</time>
      </trkpt>
      <trkpt lat="46.70032" lon="6.28194">
        <ele>1222</ele>
        <time>2020-08-24T10:51:02Z</time>
      </trkpt>
      <trkpt lat="46.70036" lon="6.28188">
        <ele>1222</ele>
        <time>2020-08-24T10:51:12Z</time>
      </trkpt>
      <trkpt lat="46.70034" lon="6.28167">
        <ele>1223</ele>
        <time>2020-08-24T10:51:26Z</time>
      </trkpt>
      <trkpt lat="46.7003" lon="6.28159">
        <ele>1223</ele>
        <time>2020-08-24T10:51:31Z</time>
      </trkpt>
      <trkpt lat="46.70027" lon="6.2815">
        <ele>1224</ele>
        <time>2020-08-24T10:51:38Z</time>
      </trkpt>
      <trkpt lat="46.70025" lon="6.28143">
        <ele>1224</ele>
        <time>2020-08-24T10:51:44Z</time>
      </trkpt>
      <trkpt lat="46.7002" lon="6.28125">
        <ele>1225</ele>
        <time>2020-08-24T10:51:59Z</time>
      </trkpt>
      <trkpt lat="46.70018" lon="6.28109">
        <ele>1226</ele>
        <time>2020-08-24T10:52:11Z</time>
      </trkpt>
      <trkpt lat="46.70026" lon="6.28094">
        <ele>1228</ele>
        <time>2020-08-24T10:52:25Z</time>
      </trkpt>
      <trkpt lat="46.70029" lon="6.28085">
        <ele>1228</ele>
        <time>2020-08-24T10:52:33Z</time>
      </trkpt>
      <trkpt lat="46.70034" lon="6.2808">
        <ele>1229</ele>
        <time>2020-08-24T10:52:38Z</time>
      </trkpt>
      <trkpt lat="46.70039" lon="6.2807">
        <ele>1229</ele>
        <time>2020-08-24T10:52:45Z</time>
      </trkpt>
      <trkpt lat="46.70039" lon="6.28025">
        <ele>1231</ele>
        <time>2020-08-24T10:53:13Z</time>
      </trkpt>
      <trkpt lat="46.70037" lon="6.2802">
        <ele>1232</ele>
        <time>2020-08-24T10:53:16Z</time>
      </trkpt>
      <trkpt lat="46.70039" lon="6.27986">
        <ele>1233</ele>
        <time>2020-08-24T10:53:36Z</time>
      </trkpt>
      <trkpt lat="46.70036" lon="6.27976">
        <ele>1233</ele>
        <time>2020-08-24T10:53:42Z</time>
      </trkpt>
      <trkpt lat="46.70034" lon="6.27966">
        <ele>1234</ele>
        <time>2020-08-24T10:53:48Z</time>
      </trkpt>
      <trkpt lat="46.70031" lon="6.27952">
        <ele>1234</ele>
        <time>2020-08-24T10:53:58Z</time>
      </trkpt>
      <trkpt lat="46.70027" lon="6.27939">
        <ele>1235</ele>
        <time>2020-08-24T10:54:07Z</time>
      </trkpt>
      <trkpt lat="46.7001" lon="6.27911">
        <ele>1236</ele>
        <time>2020-08-24T10:54:30Z</time>
      </trkpt>
      <trkpt lat="46.70004" lon="6.27896">
        <ele>1236</ele>
        <time>2020-08-24T10:54:46Z</time>
      </trkpt>
      <trkpt lat="46.6999" lon="6.27869">
        <ele>1234</ele>
        <time>2020-08-24T10:55:13Z</time>
      </trkpt>
      <trkpt lat="46.69965" lon="6.27833">
        <ele>1234</ele>
        <time>2020-08-24T10:55:43Z</time>
      </trkpt>
      <trkpt lat="46.6996" lon="6.27827">
        <ele>1233</ele>
        <time>2020-08-24T10:55:48Z</time>
      </trkpt>
      <trkpt lat="46.69948" lon="6.27821">
        <ele>1233</ele>
        <time>2020-08-24T10:56:02Z</time>
      </trkpt>
      <trkpt lat="46.69941" lon="6.27816">
        <ele>1232</ele>
        <time>2020-08-24T10:56:09Z</time>
      </trkpt>
      <trkpt lat="46.69935" lon="6.27813">
        <ele>1232</ele>
        <time>2020-08-24T10:56:14Z</time>
      </trkpt>
      <trkpt lat="46.6993" lon="6.27812">
        <ele>1232</ele>
        <time>2020-08-24T10:56:20Z</time>
      </trkpt>
      <trkpt lat="46.69922" lon="6.27815">
        <ele>1231</ele>
        <time>2020-08-24T10:56:28Z</time>
      </trkpt>
      <trkpt lat="46.69917" lon="6.27816">
        <ele>1230</ele>
        <time>2020-08-24T10:56:34Z</time>
      </trkpt>
      <trkpt lat="46.69913" lon="6.27817">
        <ele>1229</ele>
        <time>2020-08-24T10:56:41Z</time>
      </trkpt>
      <trkpt lat="46.69904" lon="6.27822">
        <ele>1228</ele>
        <time>2020-08-24T10:56:53Z</time>
      </trkpt>
      <trkpt lat="46.69898" lon="6.27824">
        <ele>1228</ele>
        <time>2020-08-24T10:56:59Z</time>
      </trkpt>
      <trkpt lat="46.69879" lon="6.27834">
        <ele>1225</ele>
        <time>2020-08-24T10:57:23Z</time>
      </trkpt>
      <trkpt lat="46.69868" lon="6.27836">
        <ele>1224</ele>
        <time>2020-08-24T10:57:41Z</time>
      </trkpt>
      <trkpt lat="46.69864" lon="6.27835">
        <ele>1224</ele>
        <time>2020-08-24T10:57:51Z</time>
      </trkpt>
      <trkpt lat="46.6986" lon="6.27832">
        <ele>1224</ele>
        <time>2020-08-24T10:57:55Z</time>
      </trkpt>
      <trkpt lat="46.69854" lon="6.27822">
        <ele>1223</ele>
        <time>2020-08-24T10:58:10Z</time>
      </trkpt>
      <trkpt lat="46.69851" lon="6.27814">
        <ele>1223</ele>
        <time>2020-08-24T10:58:15Z</time>
      </trkpt>
      <trkpt lat="46.69846" lon="6.27806">
        <ele>1223</ele>
        <time>2020-08-24T10:58:21Z</time>
      </trkpt>
      <trkpt lat="46.69846" lon="6.27798">
        <ele>1223</ele>
        <time>2020-08-24T10:58:27Z</time>
      </trkpt>
      <trkpt lat="46.69841" lon="6.27788">
        <ele>1223</ele>
        <time>2020-08-24T10:58:35Z</time>
      </trkpt>
      <trkpt lat="46.69837" lon="6.27784">
        <ele>1223</ele>
        <time>2020-08-24T10:58:42Z</time>
      </trkpt>
      <trkpt lat="46.69833" lon="6.27778">
        <ele>1222</ele>
        <time>2020-08-24T10:59:28Z</time>
      </trkpt>
      <trkpt lat="46.69834" lon="6.27761">
        <ele>1222</ele>
        <time>2020-08-24T10:59:42Z</time>
      </trkpt>
      <trkpt lat="46.6983" lon="6.27708">
        <ele>1221</ele>
        <time>2020-08-24T11:00:16Z</time>
      </trkpt>
      <trkpt lat="46.69828" lon="6.277">
        <ele>1221</ele>
        <time>2020-08-24T11:00:22Z</time>
      </trkpt>
      <trkpt lat="46.69827" lon="6.2769">
        <ele>1221</ele>
        <time>2020-08-24T11:00:30Z</time>
      </trkpt>
      <trkpt lat="46.69826" lon="6.27685">
        <ele>1221</ele>
        <time>2020-08-24T11:00:33Z</time>
      </trkpt>
      <trkpt lat="46.69824" lon="6.27654">
        <ele>1221</ele>
        <time>2020-08-24T11:00:53Z</time>
      </trkpt>
      <trkpt lat="46.69818" lon="6.27633">
        <ele>1220</ele>
        <time>2020-08-24T11:01:08Z</time>
      </trkpt>
      <trkpt lat="46.69816" lon="6.27622">
        <ele>1219</ele>
        <time>2020-08-24T11:01:16Z</time>
      </trkpt>
      <trkpt lat="46.69815" lon="6.27614">
        <ele>1217</ele>
        <time>2020-08-24T11:01:25Z</time>
      </trkpt>
      <trkpt lat="46.6982" lon="6.27586">
        <ele>1215</ele>
        <time>2020-08-24T11:01:44Z</time>
      </trkpt>
      <trkpt lat="46.69822" lon="6.27579">
        <ele>1215</ele>
        <time>2020-08-24T11:01:50Z</time>
      </trkpt>
      <trkpt lat="46.69825" lon="6.2755">
        <ele>1213</ele>
        <time>2020-08-24T11:02:18Z</time>
      </trkpt>
      <trkpt lat="46.69828" lon="6.27544">
        <ele>1213</ele>
        <time>2020-08-24T11:02:23Z</time>
      </trkpt>
      <trkpt lat="46.69833" lon="6.27538">
        <ele>1213</ele>
        <time>2020-08-24T11:02:30Z</time>
      </trkpt>
      <trkpt lat="46.69844" lon="6.27526">
        <ele>1215</ele>
        <time>2020-08-24T11:03:03Z</time>
      </trkpt>
      <trkpt lat="46.69868" lon="6.27528">
        <ele>1218</ele>
        <time>2020-08-24T11:03:31Z</time>
      </trkpt>
      <trkpt lat="46.69888" lon="6.27516">
        <ele>1221</ele>
        <time>2020-08-24T11:03:58Z</time>
      </trkpt>
      <trkpt lat="46.69893" lon="6.2751">
        <ele>1222</ele>
        <time>2020-08-24T11:04:05Z</time>
      </trkpt>
      <trkpt lat="46.69905" lon="6.27501">
        <ele>1224</ele>
        <time>2020-08-24T11:04:17Z</time>
      </trkpt>
      <trkpt lat="46.69922" lon="6.2747">
        <ele>1225</ele>
        <time>2020-08-24T11:04:40Z</time>
      </trkpt>
      <trkpt lat="46.69936" lon="6.27439">
        <ele>1227</ele>
        <time>2020-08-24T11:05:05Z</time>
      </trkpt>
      <trkpt lat="46.6994" lon="6.27433">
        <ele>1227</ele>
        <time>2020-08-24T11:05:10Z</time>
      </trkpt>
      <trkpt lat="46.69947" lon="6.27429">
        <ele>1227</ele>
        <time>2020-08-24T11:05:19Z</time>
      </trkpt>
      <trkpt lat="46.69954" lon="6.27417">
        <ele>1227</ele>
        <time>2020-08-24T11:05:30Z</time>
      </trkpt>
      <trkpt lat="46.6996" lon="6.27401">
        <ele>1227</ele>
        <time>2020-08-24T11:05:40Z</time>
      </trkpt>
      <trkpt lat="46.69975" lon="6.27372">
        <ele>1227</ele>
        <time>2020-08-24T11:06:02Z</time>
      </trkpt>
      <trkpt lat="46.69979" lon="6.27367">
        <ele>1227</ele>
        <time>2020-08-24T11:06:10Z</time>
      </trkpt>
      <trkpt lat="46.6998" lon="6.27358">
        <ele>1227</ele>
        <time>2020-08-24T11:06:15Z</time>
      </trkpt>
      <trkpt lat="46.69984" lon="6.27352">
        <ele>1227</ele>
        <time>2020-08-24T11:06:20Z</time>
      </trkpt>
      <trkpt lat="46.69986" lon="6.27341">
        <ele>1227</ele>
        <time>2020-08-24T11:06:27Z</time>
      </trkpt>
      <trkpt lat="46.69994" lon="6.27329">
        <ele>1228</ele>
        <time>2020-08-24T11:06:37Z</time>
      </trkpt>
      <trkpt lat="46.7001" lon="6.27319">
        <ele>1229</ele>
        <time>2020-08-24T11:06:58Z</time>
      </trkpt>
      <trkpt lat="46.70015" lon="6.27318">
        <ele>1229</ele>
        <time>2020-08-24T11:07:03Z</time>
      </trkpt>
      <trkpt lat="46.7005" lon="6.27303">
        <ele>1235</ele>
        <time>2020-08-24T11:07:41Z</time>
      </trkpt>
      <trkpt lat="46.70089" lon="6.27287">
        <ele>1238</ele>
        <time>2020-08-24T11:08:20Z</time>
      </trkpt>
      <trkpt lat="46.70106" lon="6.27286">
        <ele>1239</ele>
        <time>2020-08-24T11:08:34Z</time>
      </trkpt>
      <trkpt lat="46.7012" lon="6.27293">
        <ele>1240</ele>
        <time>2020-08-24T11:08:48Z</time>
      </trkpt>
      <trkpt lat="46.70141" lon="6.27289">
        <ele>1241</ele>
        <time>2020-08-24T11:09:09Z</time>
      </trkpt>
      <trkpt lat="46.7016" lon="6.27293">
        <ele>1243</ele>
        <time>2020-08-24T11:09:27Z</time>
      </trkpt>
      <trkpt lat="46.70167" lon="6.27291">
        <ele>1244</ele>
        <time>2020-08-24T11:09:35Z</time>
      </trkpt>
      <trkpt lat="46.70173" lon="6.27289">
        <ele>1244</ele>
        <time>2020-08-24T11:09:40Z</time>
      </trkpt>
      <trkpt lat="46.70178" lon="6.2729">
        <ele>1244</ele>
        <time>2020-08-24T11:09:45Z</time>
      </trkpt>
      <trkpt lat="46.70184" lon="6.27291">
        <ele>1245</ele>
        <time>2020-08-24T11:09:50Z</time>
      </trkpt>
      <trkpt lat="46.7019" lon="6.27291">
        <ele>1245</ele>
        <time>2020-08-24T11:09:55Z</time>
      </trkpt>
      <trkpt lat="46.70195" lon="6.27286">
        <ele>1245</ele>
        <time>2020-08-24T11:10:00Z</time>
      </trkpt>
      <trkpt lat="46.70204" lon="6.27282">
        <ele>1246</ele>
        <time>2020-08-24T11:10:10Z</time>
      </trkpt>
      <trkpt lat="46.70208" lon="6.27278">
        <ele>1247</ele>
        <time>2020-08-24T11:10:16Z</time>
      </trkpt>
      <trkpt lat="46.70222" lon="6.27269">
        <ele>1249</ele>
        <time>2020-08-24T11:10:34Z</time>
      </trkpt>
      <trkpt lat="46.70233" lon="6.27268">
        <ele>1251</ele>
        <time>2020-08-24T11:10:44Z</time>
      </trkpt>
      <trkpt lat="46.7024" lon="6.2727">
        <ele>1253</ele>
        <time>2020-08-24T11:10:59Z</time>
      </trkpt>
      <trkpt lat="46.70247" lon="6.2727">
        <ele>1254</ele>
        <time>2020-08-24T11:11:06Z</time>
      </trkpt>
      <trkpt lat="46.7025" lon="6.27276">
        <ele>1254</ele>
        <time>2020-08-24T11:11:12Z</time>
      </trkpt>
      <trkpt lat="46.70252" lon="6.27284">
        <ele>1254</ele>
        <time>2020-08-24T11:11:18Z</time>
      </trkpt>
      <trkpt lat="46.7027" lon="6.27295">
        <ele>1253</ele>
        <time>2020-08-24T11:11:36Z</time>
      </trkpt>
      <trkpt lat="46.70284" lon="6.27297">
        <ele>1253</ele>
        <time>2020-08-24T11:11:44Z</time>
      </trkpt>
      <trkpt lat="46.70289" lon="6.27301">
        <ele>1252</ele>
        <time>2020-08-24T11:11:49Z</time>
      </trkpt>
      <trkpt lat="46.70301" lon="6.27303">
        <ele>1252</ele>
        <time>2020-08-24T11:12:00Z</time>
      </trkpt>
      <trkpt lat="46.70311" lon="6.27308">
        <ele>1252</ele>
        <time>2020-08-24T11:12:09Z</time>
      </trkpt>
      <trkpt lat="46.70318" lon="6.27308">
        <ele>1252</ele>
        <time>2020-08-24T11:12:14Z</time>
      </trkpt>
      <trkpt lat="46.70329" lon="6.27303">
        <ele>1252</ele>
        <time>2020-08-24T11:12:27Z</time>
      </trkpt>
      <trkpt lat="46.70333" lon="6.27296">
        <ele>1253</ele>
        <time>2020-08-24T11:12:31Z</time>
      </trkpt>
      <trkpt lat="46.70342" lon="6.27286">
        <ele>1252</ele>
        <time>2020-08-24T11:12:42Z</time>
      </trkpt>
      <trkpt lat="46.70348" lon="6.27285">
        <ele>1251</ele>
        <time>2020-08-24T11:12:48Z</time>
      </trkpt>
      <trkpt lat="46.70354" lon="6.27285">
        <ele>1251</ele>
        <time>2020-08-24T11:12:52Z</time>
      </trkpt>
      <trkpt lat="46.70368" lon="6.27282">
        <ele>1251</ele>
        <time>2020-08-24T11:13:04Z</time>
      </trkpt>
      <trkpt lat="46.70376" lon="6.27277">
        <ele>1251</ele>
        <time>2020-08-24T11:13:12Z</time>
      </trkpt>
      <trkpt lat="46.70385" lon="6.27261">
        <ele>1252</ele>
        <time>2020-08-24T11:13:21Z</time>
      </trkpt>
      <trkpt lat="46.70387" lon="6.27257">
        <ele>1252</ele>
        <time>2020-08-24T11:14:11Z</time>
      </trkpt>
      <trkpt lat="46.70396" lon="6.27246">
        <ele>1252</ele>
        <time>2020-08-24T11:14:24Z</time>
      </trkpt>
      <trkpt lat="46.70416" lon="6.27226">
        <ele>1254</ele>
        <time>2020-08-24T11:14:54Z</time>
      </trkpt>
      <trkpt lat="46.7042" lon="6.27219">
        <ele>1254</ele>
        <time>2020-08-24T11:15:00Z</time>
      </trkpt>
      <trkpt lat="46.70426" lon="6.27217">
        <ele>1254</ele>
        <time>2020-08-24T11:15:06Z</time>
      </trkpt>
      <trkpt lat="46.70447" lon="6.2719">
        <ele>1255</ele>
        <time>2020-08-24T11:15:39Z</time>
      </trkpt>
      <trkpt lat="46.7045" lon="6.27183">
        <ele>1255</ele>
        <time>2020-08-24T11:15:44Z</time>
      </trkpt>
      <trkpt lat="46.70468" lon="6.27156">
        <ele>1253</ele>
        <time>2020-08-24T11:16:11Z</time>
      </trkpt>
      <trkpt lat="46.70474" lon="6.27149">
        <ele>1253</ele>
        <time>2020-08-24T11:16:20Z</time>
      </trkpt>
      <trkpt lat="46.70483" lon="6.27148">
        <ele>1253</ele>
        <time>2020-08-24T11:16:32Z</time>
      </trkpt>
      <trkpt lat="46.70491" lon="6.27126">
        <ele>1254</ele>
        <time>2020-08-24T11:17:00Z</time>
      </trkpt>
      <trkpt lat="46.70486" lon="6.27117">
        <ele>1255</ele>
        <time>2020-08-24T11:18:54Z</time>
      </trkpt>
      <trkpt lat="46.70482" lon="6.27123">
        <ele>1255</ele>
        <time>2020-08-24T11:19:04Z</time>
      </trkpt>
      <trkpt lat="46.70486" lon="6.27129">
        <ele>1256</ele>
        <time>2020-08-24T11:19:40Z</time>
      </trkpt>
      <trkpt lat="46.70492" lon="6.27131">
        <ele>1256</ele>
        <time>2020-08-24T11:20:04Z</time>
      </trkpt>
      <trkpt lat="46.70499" lon="6.27124">
        <ele>1257</ele>
        <time>2020-08-24T11:20:47Z</time>
      </trkpt>
      <trkpt lat="46.70507" lon="6.27123">
        <ele>1257</ele>
        <time>2020-08-24T11:20:51Z</time>
      </trkpt>
      <trkpt lat="46.70517" lon="6.27113">
        <ele>1257</ele>
        <time>2020-08-24T11:21:00Z</time>
      </trkpt>
      <trkpt lat="46.70522" lon="6.27111">
        <ele>1257</ele>
        <time>2020-08-24T11:21:04Z</time>
      </trkpt>
      <trkpt lat="46.70527" lon="6.27105">
        <ele>1257</ele>
        <time>2020-08-24T11:21:13Z</time>
      </trkpt>
      <trkpt lat="46.7054" lon="6.27096">
        <ele>1256</ele>
        <time>2020-08-24T11:21:29Z</time>
      </trkpt>
      <trkpt lat="46.70544" lon="6.27089">
        <ele>1256</ele>
        <time>2020-08-24T11:21:35Z</time>
      </trkpt>
      <trkpt lat="46.70546" lon="6.27081">
        <ele>1256</ele>
        <time>2020-08-24T11:21:49Z</time>
      </trkpt>
      <trkpt lat="46.70552" lon="6.27076">
        <ele>1256</ele>
        <time>2020-08-24T11:22:25Z</time>
      </trkpt>
      <trkpt lat="46.70553" lon="6.27059">
        <ele>1252</ele>
        <time>2020-08-24T11:22:53Z</time>
      </trkpt>
      <trkpt lat="46.70554" lon="6.27051">
        <ele>1252</ele>
        <time>2020-08-24T11:22:58Z</time>
      </trkpt>
      <trkpt lat="46.70554" lon="6.27042">
        <ele>1252</ele>
        <time>2020-08-24T11:23:03Z</time>
      </trkpt>
      <trkpt lat="46.70551" lon="6.27034">
        <ele>1252</ele>
        <time>2020-08-24T11:23:07Z</time>
      </trkpt>
      <trkpt lat="46.70547" lon="6.27028">
        <ele>1253</ele>
        <time>2020-08-24T11:23:12Z</time>
      </trkpt>
      <trkpt lat="46.70542" lon="6.27023">
        <ele>1253</ele>
        <time>2020-08-24T11:23:18Z</time>
      </trkpt>
      <trkpt lat="46.70535" lon="6.2701">
        <ele>1251</ele>
        <time>2020-08-24T11:23:29Z</time>
      </trkpt>
      <trkpt lat="46.70531" lon="6.27001">
        <ele>1251</ele>
        <time>2020-08-24T11:23:37Z</time>
      </trkpt>
      <trkpt lat="46.70521" lon="6.26991">
        <ele>1251</ele>
        <time>2020-08-24T11:23:48Z</time>
      </trkpt>
      <trkpt lat="46.70526" lon="6.26986">
        <ele>1249</ele>
        <time>2020-08-24T11:25:11Z</time>
      </trkpt>
      <trkpt lat="46.70555" lon="6.26956">
        <ele>1245</ele>
        <time>2020-08-24T11:25:44Z</time>
      </trkpt>
      <trkpt lat="46.70562" lon="6.26949">
        <ele>1244</ele>
        <time>2020-08-24T11:25:55Z</time>
      </trkpt>
      <trkpt lat="46.70561" lon="6.26934">
        <ele>1244</ele>
        <time>2020-08-24T11:26:07Z</time>
      </trkpt>
      <trkpt lat="46.70559" lon="6.26922">
        <ele>1243</ele>
        <time>2020-08-24T11:26:33Z</time>
      </trkpt>
      <trkpt lat="46.70553" lon="6.26908">
        <ele>1243</ele>
        <time>2020-08-24T11:26:58Z</time>
      </trkpt>
      <trkpt lat="46.70553" lon="6.26897">
        <ele>1243</ele>
        <time>2020-08-24T11:27:12Z</time>
      </trkpt>
      <trkpt lat="46.7056" lon="6.26869">
        <ele>1239</ele>
        <time>2020-08-24T11:27:54Z</time>
      </trkpt>
      <trkpt lat="46.70569" lon="6.26858">
        <ele>1240</ele>
        <time>2020-08-24T11:28:01Z</time>
      </trkpt>
      <trkpt lat="46.70575" lon="6.26857">
        <ele>1240</ele>
        <time>2020-08-24T11:28:06Z</time>
      </trkpt>
      <trkpt lat="46.70585" lon="6.26838">
        <ele>1238</ele>
        <time>2020-08-24T11:28:26Z</time>
      </trkpt>
      <trkpt lat="46.7059" lon="6.26835">
        <ele>1238</ele>
        <time>2020-08-24T11:28:38Z</time>
      </trkpt>
      <trkpt lat="46.70601" lon="6.26806">
        <ele>1236</ele>
        <time>2020-08-24T11:28:57Z</time>
      </trkpt>
      <trkpt lat="46.70604" lon="6.26799">
        <ele>1236</ele>
        <time>2020-08-24T11:29:02Z</time>
      </trkpt>
      <trkpt lat="46.70609" lon="6.26787">
        <ele>1235</ele>
        <time>2020-08-24T11:29:27Z</time>
      </trkpt>
      <trkpt lat="46.70614" lon="6.26788">
        <ele>1233</ele>
        <time>2020-08-24T11:30:03Z</time>
      </trkpt>
      <trkpt lat="46.7062" lon="6.26793">
        <ele>1232</ele>
        <time>2020-08-24T11:30:14Z</time>
      </trkpt>
      <trkpt lat="46.70628" lon="6.26794">
        <ele>1232</ele>
        <time>2020-08-24T11:30:27Z</time>
      </trkpt>
      <trkpt lat="46.70639" lon="6.26792">
        <ele>1230</ele>
        <time>2020-08-24T11:30:44Z</time>
      </trkpt>
      <trkpt lat="46.70646" lon="6.26796">
        <ele>1229</ele>
        <time>2020-08-24T11:30:53Z</time>
      </trkpt>
      <trkpt lat="46.70652" lon="6.26802">
        <ele>1229</ele>
        <time>2020-08-24T11:31:00Z</time>
      </trkpt>
      <trkpt lat="46.70659" lon="6.26812">
        <ele>1229</ele>
        <time>2020-08-24T11:31:05Z</time>
      </trkpt>
      <trkpt lat="46.70672" lon="6.26817">
        <ele>1229</ele>
        <time>2020-08-24T11:31:13Z</time>
      </trkpt>
      <trkpt lat="46.70679" lon="6.26819">
        <ele>1228</ele>
        <time>2020-08-24T11:31:20Z</time>
      </trkpt>
      <trkpt lat="46.70686" lon="6.2681">
        <ele>1228</ele>
        <time>2020-08-24T11:31:23Z</time>
      </trkpt>
      <trkpt lat="46.70694" lon="6.26794">
        <ele>1229</ele>
        <time>2020-08-24T11:31:28Z</time>
      </trkpt>
      <trkpt lat="46.707" lon="6.26789">
        <ele>1229</ele>
        <time>2020-08-24T11:31:32Z</time>
      </trkpt>
      <trkpt lat="46.70712" lon="6.26781">
        <ele>1229</ele>
        <time>2020-08-24T11:31:38Z</time>
      </trkpt>
      <trkpt lat="46.70729" lon="6.26761">
        <ele>1229</ele>
        <time>2020-08-24T11:31:54Z</time>
      </trkpt>
      <trkpt lat="46.70733" lon="6.26752">
        <ele>1229</ele>
        <time>2020-08-24T11:32:03Z</time>
      </trkpt>
      <trkpt lat="46.70743" lon="6.26744">
        <ele>1229</ele>
        <time>2020-08-24T11:32:14Z</time>
      </trkpt>
      <trkpt lat="46.70752" lon="6.26735">
        <ele>1230</ele>
        <time>2020-08-24T11:32:22Z</time>
      </trkpt>
      <trkpt lat="46.70757" lon="6.26734">
        <ele>1230</ele>
        <time>2020-08-24T11:32:28Z</time>
      </trkpt>
      <trkpt lat="46.70762" lon="6.26728">
        <ele>1230</ele>
        <time>2020-08-24T11:32:37Z</time>
      </trkpt>
      <trkpt lat="46.70766" lon="6.26721">
        <ele>1229</ele>
        <time>2020-08-24T11:32:43Z</time>
      </trkpt>
      <trkpt lat="46.70768" lon="6.26712">
        <ele>1229</ele>
        <time>2020-08-24T11:32:48Z</time>
      </trkpt>
      <trkpt lat="46.70772" lon="6.26704">
        <ele>1229</ele>
        <time>2020-08-24T11:32:56Z</time>
      </trkpt>
      <trkpt lat="46.70777" lon="6.26688">
        <ele>1230</ele>
        <time>2020-08-24T11:33:06Z</time>
      </trkpt>
      <trkpt lat="46.70781" lon="6.2668">
        <ele>1230</ele>
        <time>2020-08-24T11:33:13Z</time>
      </trkpt>
      <trkpt lat="46.70795" lon="6.26655">
        <ele>1231</ele>
        <time>2020-08-24T11:33:36Z</time>
      </trkpt>
      <trkpt lat="46.70801" lon="6.26653">
        <ele>1232</ele>
        <time>2020-08-24T11:33:42Z</time>
      </trkpt>
      <trkpt lat="46.70805" lon="6.26647">
        <ele>1231</ele>
        <time>2020-08-24T11:33:48Z</time>
      </trkpt>
      <trkpt lat="46.70812" lon="6.2664">
        <ele>1231</ele>
        <time>2020-08-24T11:33:57Z</time>
      </trkpt>
      <trkpt lat="46.70814" lon="6.26633">
        <ele>1231</ele>
        <time>2020-08-24T11:34:05Z</time>
      </trkpt>
      <trkpt lat="46.70822" lon="6.26631">
        <ele>1231</ele>
        <time>2020-08-24T11:34:11Z</time>
      </trkpt>
      <trkpt lat="46.70826" lon="6.26628">
        <ele>1231</ele>
        <time>2020-08-24T11:34:15Z</time>
      </trkpt>
      <trkpt lat="46.7084" lon="6.26608">
        <ele>1230</ele>
        <time>2020-08-24T11:34:28Z</time>
      </trkpt>
      <trkpt lat="46.70842" lon="6.26601">
        <ele>1230</ele>
        <time>2020-08-24T11:34:33Z</time>
      </trkpt>
      <trkpt lat="46.70847" lon="6.26596">
        <ele>1229</ele>
        <time>2020-08-24T11:34:39Z</time>
      </trkpt>
      <trkpt lat="46.70855" lon="6.26576">
        <ele>1227</ele>
        <time>2020-08-24T11:34:53Z</time>
      </trkpt>
      <trkpt lat="46.70859" lon="6.2657">
        <ele>1226</ele>
        <time>2020-08-24T11:34:59Z</time>
      </trkpt>
      <trkpt lat="46.70862" lon="6.26561">
        <ele>1225</ele>
        <time>2020-08-24T11:35:06Z</time>
      </trkpt>
      <trkpt lat="46.70867" lon="6.26553">
        <ele>1224</ele>
        <time>2020-08-24T11:35:15Z</time>
      </trkpt>
      <trkpt lat="46.70882" lon="6.26513">
        <ele>1221</ele>
        <time>2020-08-24T11:35:39Z</time>
      </trkpt>
      <trkpt lat="46.70878" lon="6.26507">
        <ele>1220</ele>
        <time>2020-08-24T11:36:35Z</time>
      </trkpt>
      <trkpt lat="46.70886" lon="6.26502">
        <ele>1218</ele>
        <time>2020-08-24T11:37:01Z</time>
      </trkpt>
      <trkpt lat="46.70891" lon="6.26496">
        <ele>1217</ele>
        <time>2020-08-24T11:37:07Z</time>
      </trkpt>
      <trkpt lat="46.70899" lon="6.26472">
        <ele>1215</ele>
        <time>2020-08-24T11:37:25Z</time>
      </trkpt>
      <trkpt lat="46.70921" lon="6.26456">
        <ele>1214</ele>
        <time>2020-08-24T11:37:48Z</time>
      </trkpt>
      <trkpt lat="46.70929" lon="6.26446">
        <ele>1213</ele>
        <time>2020-08-24T11:37:56Z</time>
      </trkpt>
      <trkpt lat="46.70933" lon="6.2644">
        <ele>1213</ele>
        <time>2020-08-24T11:38:00Z</time>
      </trkpt>
      <trkpt lat="46.70939" lon="6.26429">
        <ele>1213</ele>
        <time>2020-08-24T11:38:09Z</time>
      </trkpt>
      <trkpt lat="46.70963" lon="6.26391">
        <ele>1212</ele>
        <time>2020-08-24T11:38:36Z</time>
      </trkpt>
      <trkpt lat="46.70966" lon="6.2638">
        <ele>1212</ele>
        <time>2020-08-24T11:38:43Z</time>
      </trkpt>
      <trkpt lat="46.7097" lon="6.26376">
        <ele>1212</ele>
        <time>2020-08-24T11:38:48Z</time>
      </trkpt>
      <trkpt lat="46.70975" lon="6.26362">
        <ele>1210</ele>
        <time>2020-08-24T11:39:02Z</time>
      </trkpt>
      <trkpt lat="46.70966" lon="6.26329">
        <ele>1208</ele>
        <time>2020-08-24T11:39:21Z</time>
      </trkpt>
      <trkpt lat="46.70951" lon="6.26312">
        <ele>1206</ele>
        <time>2020-08-24T11:39:35Z</time>
      </trkpt>
      <trkpt lat="46.70945" lon="6.26297">
        <ele>1204</ele>
        <time>2020-08-24T11:39:47Z</time>
      </trkpt>
      <trkpt lat="46.70946" lon="6.26273">
        <ele>1201</ele>
        <time>2020-08-24T11:40:05Z</time>
      </trkpt>
      <trkpt lat="46.7095" lon="6.26266">
        <ele>1200</ele>
        <time>2020-08-24T11:40:10Z</time>
      </trkpt>
      <trkpt lat="46.70955" lon="6.26249">
        <ele>1198</ele>
        <time>2020-08-24T11:40:20Z</time>
      </trkpt>
      <trkpt lat="46.70959" lon="6.26243">
        <ele>1197</ele>
        <time>2020-08-24T11:40:26Z</time>
      </trkpt>
      <trkpt lat="46.70966" lon="6.26225">
        <ele>1195</ele>
        <time>2020-08-24T11:40:41Z</time>
      </trkpt>
      <trkpt lat="46.7097" lon="6.26218">
        <ele>1194</ele>
        <time>2020-08-24T11:40:49Z</time>
      </trkpt>
      <trkpt lat="46.70986" lon="6.26204">
        <ele>1192</ele>
        <time>2020-08-24T11:41:05Z</time>
      </trkpt>
      <trkpt lat="46.70989" lon="6.26197">
        <ele>1191</ele>
        <time>2020-08-24T11:41:08Z</time>
      </trkpt>
      <trkpt lat="46.70993" lon="6.26192">
        <ele>1190</ele>
        <time>2020-08-24T11:41:13Z</time>
      </trkpt>
      <trkpt lat="46.71006" lon="6.26183">
        <ele>1188</ele>
        <time>2020-08-24T11:41:24Z</time>
      </trkpt>
      <trkpt lat="46.71011" lon="6.26182">
        <ele>1188</ele>
        <time>2020-08-24T11:41:28Z</time>
      </trkpt>
      <trkpt lat="46.71016" lon="6.26179">
        <ele>1187</ele>
        <time>2020-08-24T11:41:34Z</time>
      </trkpt>
      <trkpt lat="46.71025" lon="6.26169">
        <ele>1186</ele>
        <time>2020-08-24T11:41:43Z</time>
      </trkpt>
      <trkpt lat="46.71036" lon="6.26161">
        <ele>1185</ele>
        <time>2020-08-24T11:41:53Z</time>
      </trkpt>
      <trkpt lat="46.71046" lon="6.26149">
        <ele>1184</ele>
        <time>2020-08-24T11:42:05Z</time>
      </trkpt>
      <trkpt lat="46.71058" lon="6.26147">
        <ele>1183</ele>
        <time>2020-08-24T11:42:13Z</time>
      </trkpt>
      <trkpt lat="46.71063" lon="6.26144">
        <ele>1183</ele>
        <time>2020-08-24T11:42:17Z</time>
      </trkpt>
      <trkpt lat="46.71073" lon="6.26134">
        <ele>1182</ele>
        <time>2020-08-24T11:42:26Z</time>
      </trkpt>
      <trkpt lat="46.71076" lon="6.26128">
        <ele>1181</ele>
        <time>2020-08-24T11:42:31Z</time>
      </trkpt>
      <trkpt lat="46.71087" lon="6.2612">
        <ele>1180</ele>
        <time>2020-08-24T11:42:46Z</time>
      </trkpt>
      <trkpt lat="46.71094" lon="6.26122">
        <ele>1179</ele>
        <time>2020-08-24T11:42:51Z</time>
      </trkpt>
      <trkpt lat="46.71099" lon="6.26118">
        <ele>1179</ele>
        <time>2020-08-24T11:42:56Z</time>
      </trkpt>
      <trkpt lat="46.71104" lon="6.26113">
        <ele>1178</ele>
        <time>2020-08-24T11:43:02Z</time>
      </trkpt>
      <trkpt lat="46.7111" lon="6.26109">
        <ele>1177</ele>
        <time>2020-08-24T11:43:07Z</time>
      </trkpt>
      <trkpt lat="46.71113" lon="6.26102">
        <ele>1176</ele>
        <time>2020-08-24T11:43:12Z</time>
      </trkpt>
      <trkpt lat="46.71117" lon="6.26097">
        <ele>1175</ele>
        <time>2020-08-24T11:43:17Z</time>
      </trkpt>
      <trkpt lat="46.71134" lon="6.26084">
        <ele>1173</ele>
        <time>2020-08-24T11:43:33Z</time>
      </trkpt>
      <trkpt lat="46.71147" lon="6.26069">
        <ele>1170</ele>
        <time>2020-08-24T11:43:52Z</time>
      </trkpt>
      <trkpt lat="46.71155" lon="6.26067">
        <ele>1169</ele>
        <time>2020-08-24T11:44:01Z</time>
      </trkpt>
      <trkpt lat="46.71161" lon="6.26063">
        <ele>1168</ele>
        <time>2020-08-24T11:44:07Z</time>
      </trkpt>
      <trkpt lat="46.71193" lon="6.26047">
        <ele>1164</ele>
        <time>2020-08-24T11:44:41Z</time>
      </trkpt>
      <trkpt lat="46.7122" lon="6.26028">
        <ele>1160</ele>
        <time>2020-08-24T11:45:10Z</time>
      </trkpt>
      <trkpt lat="46.71239" lon="6.26021">
        <ele>1158</ele>
        <time>2020-08-24T11:45:28Z</time>
      </trkpt>
      <trkpt lat="46.71244" lon="6.26017">
        <ele>1157</ele>
        <time>2020-08-24T11:45:33Z</time>
      </trkpt>
      <trkpt lat="46.71252" lon="6.26014">
        <ele>1156</ele>
        <time>2020-08-24T11:45:41Z</time>
      </trkpt>
      <trkpt lat="46.71267" lon="6.25998">
        <ele>1154</ele>
        <time>2020-08-24T11:45:57Z</time>
      </trkpt>
      <trkpt lat="46.71273" lon="6.25996">
        <ele>1154</ele>
        <time>2020-08-24T11:46:01Z</time>
      </trkpt>
      <trkpt lat="46.71294" lon="6.25976">
        <ele>1149</ele>
        <time>2020-08-24T11:46:25Z</time>
      </trkpt>
      <trkpt lat="46.713" lon="6.25972">
        <ele>1148</ele>
        <time>2020-08-24T11:46:31Z</time>
      </trkpt>
      <trkpt lat="46.71304" lon="6.25963">
        <ele>1147</ele>
        <time>2020-08-24T11:46:35Z</time>
      </trkpt>
      <trkpt lat="46.71307" lon="6.25956">
        <ele>1147</ele>
        <time>2020-08-24T11:46:39Z</time>
      </trkpt>
      <trkpt lat="46.71315" lon="6.25942">
        <ele>1146</ele>
        <time>2020-08-24T11:46:49Z</time>
      </trkpt>
      <trkpt lat="46.71318" lon="6.25935">
        <ele>1146</ele>
        <time>2020-08-24T11:46:54Z</time>
      </trkpt>
      <trkpt lat="46.7132" lon="6.25927">
        <ele>1146</ele>
        <time>2020-08-24T11:46:58Z</time>
      </trkpt>
      <trkpt lat="46.71324" lon="6.2591">
        <ele>1145</ele>
        <time>2020-08-24T11:47:05Z</time>
      </trkpt>
      <trkpt lat="46.71332" lon="6.25907">
        <ele>1144</ele>
        <time>2020-08-24T11:47:15Z</time>
      </trkpt>
      <trkpt lat="46.71338" lon="6.25906">
        <ele>1144</ele>
        <time>2020-08-24T11:47:22Z</time>
      </trkpt>
      <trkpt lat="46.71353" lon="6.25908">
        <ele>1143</ele>
        <time>2020-08-24T11:47:36Z</time>
      </trkpt>
      <trkpt lat="46.71364" lon="6.25904">
        <ele>1142</ele>
        <time>2020-08-24T11:47:44Z</time>
      </trkpt>
      <trkpt lat="46.71372" lon="6.25897">
        <ele>1142</ele>
        <time>2020-08-24T11:47:50Z</time>
      </trkpt>
      <trkpt lat="46.7138" lon="6.25895">
        <ele>1141</ele>
        <time>2020-08-24T11:47:59Z</time>
      </trkpt>
      <trkpt lat="46.71398" lon="6.25884">
        <ele>1140</ele>
        <time>2020-08-24T11:48:14Z</time>
      </trkpt>
      <trkpt lat="46.71426" lon="6.25854">
        <ele>1138</ele>
        <time>2020-08-24T11:48:40Z</time>
      </trkpt>
      <trkpt lat="46.71439" lon="6.25834">
        <ele>1137</ele>
        <time>2020-08-24T11:48:56Z</time>
      </trkpt>
      <trkpt lat="46.71452" lon="6.25816">
        <ele>1137</ele>
        <time>2020-08-24T11:49:14Z</time>
      </trkpt>
      <trkpt lat="46.71453" lon="6.25807">
        <ele>1137</ele>
        <time>2020-08-24T11:49:35Z</time>
      </trkpt>
      <trkpt lat="46.71464" lon="6.258">
        <ele>1137</ele>
        <time>2020-08-24T11:49:47Z</time>
      </trkpt>
      <trkpt lat="46.71479" lon="6.25773">
        <ele>1136</ele>
        <time>2020-08-24T11:50:09Z</time>
      </trkpt>
      <trkpt lat="46.7149" lon="6.25749">
        <ele>1136</ele>
        <time>2020-08-24T11:50:23Z</time>
      </trkpt>
      <trkpt lat="46.71493" lon="6.25745">
        <ele>1136</ele>
        <time>2020-08-24T11:50:27Z</time>
      </trkpt>
      <trkpt lat="46.71515" lon="6.25701">
        <ele>1133</ele>
        <time>2020-08-24T11:51:00Z</time>
      </trkpt>
      <trkpt lat="46.71522" lon="6.25691">
        <ele>1133</ele>
        <time>2020-08-24T11:51:09Z</time>
      </trkpt>
      <trkpt lat="46.71539" lon="6.25681">
        <ele>1131</ele>
        <time>2020-08-24T11:51:28Z</time>
      </trkpt>
      <trkpt lat="46.71549" lon="6.25669">
        <ele>1130</ele>
        <time>2020-08-24T11:51:36Z</time>
      </trkpt>
      <trkpt lat="46.71557" lon="6.25656">
        <ele>1129</ele>
        <time>2020-08-24T11:51:46Z</time>
      </trkpt>
      <trkpt lat="46.71567" lon="6.25647">
        <ele>1128</ele>
        <time>2020-08-24T11:51:56Z</time>
      </trkpt>
      <trkpt lat="46.71577" lon="6.25635">
        <ele>1128</ele>
        <time>2020-08-24T11:52:07Z</time>
      </trkpt>
      <trkpt lat="46.71611" lon="6.25609">
        <ele>1126</ele>
        <time>2020-08-24T11:52:37Z</time>
      </trkpt>
      <trkpt lat="46.71615" lon="6.25604">
        <ele>1126</ele>
        <time>2020-08-24T11:52:40Z</time>
      </trkpt>
      <trkpt lat="46.7164" lon="6.25586">
        <ele>1124</ele>
        <time>2020-08-24T11:53:10Z</time>
      </trkpt>
      <trkpt lat="46.71645" lon="6.25585">
        <ele>1124</ele>
        <time>2020-08-24T11:53:15Z</time>
      </trkpt>
      <trkpt lat="46.71649" lon="6.25584">
        <ele>1123</ele>
        <time>2020-08-24T11:53:23Z</time>
      </trkpt>
      <trkpt lat="46.71658" lon="6.25614">
        <ele>1122</ele>
        <time>2020-08-24T11:54:02Z</time>
      </trkpt>
      <trkpt lat="46.71661" lon="6.2562">
        <ele>1122</ele>
        <time>2020-08-24T11:54:07Z</time>
      </trkpt>
      <trkpt lat="46.7167" lon="6.25641">
        <ele>1121</ele>
        <time>2020-08-24T11:54:24Z</time>
      </trkpt>
      <trkpt lat="46.71672" lon="6.25657">
        <ele>1120</ele>
        <time>2020-08-24T11:54:36Z</time>
      </trkpt>
      <trkpt lat="46.71676" lon="6.25667">
        <ele>1119</ele>
        <time>2020-08-24T11:54:43Z</time>
      </trkpt>
      <trkpt lat="46.71681" lon="6.25697">
        <ele>1117</ele>
        <time>2020-08-24T11:55:00Z</time>
      </trkpt>
      <trkpt lat="46.71683" lon="6.25702">
        <ele>1117</ele>
        <time>2020-08-24T11:55:04Z</time>
      </trkpt>
      <trkpt lat="46.71689" lon="6.25716">
        <ele>1118</ele>
        <time>2020-08-24T11:55:16Z</time>
      </trkpt>
      <trkpt lat="46.7169" lon="6.25729">
        <ele>1119</ele>
        <time>2020-08-24T11:55:26Z</time>
      </trkpt>
      <trkpt lat="46.71696" lon="6.25745">
        <ele>1121</ele>
        <time>2020-08-24T11:55:37Z</time>
      </trkpt>
      <trkpt lat="46.717" lon="6.25752">
        <ele>1122</ele>
        <time>2020-08-24T11:55:46Z</time>
      </trkpt>
      <trkpt lat="46.71705" lon="6.25763">
        <ele>1122</ele>
        <time>2020-08-24T11:55:59Z</time>
      </trkpt>
      <trkpt lat="46.71712" lon="6.2578">
        <ele>1124</ele>
        <time>2020-08-24T11:56:14Z</time>
      </trkpt>
      <trkpt lat="46.71712" lon="6.25789">
        <ele>1124</ele>
        <time>2020-08-24T11:56:19Z</time>
      </trkpt>
      <trkpt lat="46.71713" lon="6.25796">
        <ele>1125</ele>
        <time>2020-08-24T11:58:43Z</time>
      </trkpt>
      <trkpt lat="46.71711" lon="6.25808">
        <ele>1126</ele>
        <time>2020-08-24T11:59:45Z</time>
      </trkpt>
      <trkpt lat="46.71713" lon="6.25818">
        <ele>1127</ele>
        <time>2020-08-24T11:59:52Z</time>
      </trkpt>
      <trkpt lat="46.71717" lon="6.25825">
        <ele>1127</ele>
        <time>2020-08-24T12:00:01Z</time>
      </trkpt>
      <trkpt lat="46.71718" lon="6.25859">
        <ele>1131</ele>
        <time>2020-08-24T12:00:33Z</time>
      </trkpt>
      <trkpt lat="46.71723" lon="6.25877">
        <ele>1134</ele>
        <time>2020-08-24T12:00:51Z</time>
      </trkpt>
      <trkpt lat="46.7173" lon="6.25885">
        <ele>1134</ele>
        <time>2020-08-24T12:00:57Z</time>
      </trkpt>
      <trkpt lat="46.71727" lon="6.25896">
        <ele>1135</ele>
        <time>2020-08-24T12:01:08Z</time>
      </trkpt>
      <trkpt lat="46.7173" lon="6.2591">
        <ele>1137</ele>
        <time>2020-08-24T12:01:22Z</time>
      </trkpt>
      <trkpt lat="46.71734" lon="6.2592">
        <ele>1139</ele>
        <time>2020-08-24T12:01:29Z</time>
      </trkpt>
      <trkpt lat="46.71735" lon="6.25932">
        <ele>1140</ele>
        <time>2020-08-24T12:01:36Z</time>
      </trkpt>
      <trkpt lat="46.71739" lon="6.25941">
        <ele>1141</ele>
        <time>2020-08-24T12:01:47Z</time>
      </trkpt>
      <trkpt lat="46.71746" lon="6.25971">
        <ele>1145</ele>
        <time>2020-08-24T12:02:15Z</time>
      </trkpt>
      <trkpt lat="46.7175" lon="6.25981">
        <ele>1145</ele>
        <time>2020-08-24T12:02:20Z</time>
      </trkpt>
      <trkpt lat="46.71754" lon="6.2599">
        <ele>1146</ele>
        <time>2020-08-24T12:02:27Z</time>
      </trkpt>
      <trkpt lat="46.7176" lon="6.26016">
        <ele>1148</ele>
        <time>2020-08-24T12:02:45Z</time>
      </trkpt>
      <trkpt lat="46.71777" lon="6.26054">
        <ele>1152</ele>
        <time>2020-08-24T12:03:17Z</time>
      </trkpt>
      <trkpt lat="46.71782" lon="6.2606">
        <ele>1153</ele>
        <time>2020-08-24T12:03:24Z</time>
      </trkpt>
      <trkpt lat="46.71789" lon="6.26066">
        <ele>1153</ele>
        <time>2020-08-24T12:03:32Z</time>
      </trkpt>
      <trkpt lat="46.71793" lon="6.26074">
        <ele>1154</ele>
        <time>2020-08-24T12:03:39Z</time>
      </trkpt>
      <trkpt lat="46.71797" lon="6.261">
        <ele>1154</ele>
        <time>2020-08-24T12:03:55Z</time>
      </trkpt>
      <trkpt lat="46.718" lon="6.26106">
        <ele>1154</ele>
        <time>2020-08-24T12:03:59Z</time>
      </trkpt>
      <trkpt lat="46.71801" lon="6.26114">
        <ele>1155</ele>
        <time>2020-08-24T12:04:04Z</time>
      </trkpt>
      <trkpt lat="46.71805" lon="6.26123">
        <ele>1154</ele>
        <time>2020-08-24T12:04:09Z</time>
      </trkpt>
      <trkpt lat="46.71807" lon="6.2613">
        <ele>1154</ele>
        <time>2020-08-24T12:04:15Z</time>
      </trkpt>
      <trkpt lat="46.71807" lon="6.26144">
        <ele>1154</ele>
        <time>2020-08-24T12:04:27Z</time>
      </trkpt>
      <trkpt lat="46.71807" lon="6.26157">
        <ele>1155</ele>
        <time>2020-08-24T12:04:39Z</time>
      </trkpt>
      <trkpt lat="46.71807" lon="6.26169">
        <ele>1156</ele>
        <time>2020-08-24T12:04:47Z</time>
      </trkpt>
      <trkpt lat="46.71806" lon="6.26193">
        <ele>1157</ele>
        <time>2020-08-24T12:05:00Z</time>
      </trkpt>
      <trkpt lat="46.71808" lon="6.26215">
        <ele>1158</ele>
        <time>2020-08-24T12:05:18Z</time>
      </trkpt>
      <trkpt lat="46.71805" lon="6.26227">
        <ele>1159</ele>
        <time>2020-08-24T12:05:29Z</time>
      </trkpt>
      <trkpt lat="46.718" lon="6.26239">
        <ele>1161</ele>
        <time>2020-08-24T12:05:38Z</time>
      </trkpt>
      <trkpt lat="46.71797" lon="6.26248">
        <ele>1162</ele>
        <time>2020-08-24T12:05:45Z</time>
      </trkpt>
      <trkpt lat="46.71799" lon="6.26284">
        <ele>1164</ele>
        <time>2020-08-24T12:06:02Z</time>
      </trkpt>
      <trkpt lat="46.71801" lon="6.26295">
        <ele>1165</ele>
        <time>2020-08-24T12:06:10Z</time>
      </trkpt>
      <trkpt lat="46.71801" lon="6.26306">
        <ele>1165</ele>
        <time>2020-08-24T12:06:16Z</time>
      </trkpt>
      <trkpt lat="46.71805" lon="6.26315">
        <ele>1165</ele>
        <time>2020-08-24T12:06:22Z</time>
      </trkpt>
      <trkpt lat="46.71811" lon="6.26323">
        <ele>1166</ele>
        <time>2020-08-24T12:06:29Z</time>
      </trkpt>
      <trkpt lat="46.71815" lon="6.26344">
        <ele>1166</ele>
        <time>2020-08-24T12:06:43Z</time>
      </trkpt>
      <trkpt lat="46.71816" lon="6.26355">
        <ele>1167</ele>
        <time>2020-08-24T12:06:50Z</time>
      </trkpt>
      <trkpt lat="46.71815" lon="6.26375">
        <ele>1168</ele>
        <time>2020-08-24T12:07:05Z</time>
      </trkpt>
      <trkpt lat="46.71816" lon="6.26385">
        <ele>1169</ele>
        <time>2020-08-24T12:07:11Z</time>
      </trkpt>
      <trkpt lat="46.71814" lon="6.26396">
        <ele>1169</ele>
        <time>2020-08-24T12:07:17Z</time>
      </trkpt>
      <trkpt lat="46.71816" lon="6.26406">
        <ele>1169</ele>
        <time>2020-08-24T12:07:23Z</time>
      </trkpt>
      <trkpt lat="46.71816" lon="6.26419">
        <ele>1169</ele>
        <time>2020-08-24T12:07:34Z</time>
      </trkpt>
      <trkpt lat="46.71812" lon="6.26425">
        <ele>1170</ele>
        <time>2020-08-24T12:07:41Z</time>
      </trkpt>
      <trkpt lat="46.71809" lon="6.2644">
        <ele>1171</ele>
        <time>2020-08-24T12:07:52Z</time>
      </trkpt>
      <trkpt lat="46.71811" lon="6.26449">
        <ele>1171</ele>
        <time>2020-08-24T12:07:57Z</time>
      </trkpt>
      <trkpt lat="46.71817" lon="6.26464">
        <ele>1171</ele>
        <time>2020-08-24T12:08:07Z</time>
      </trkpt>
      <trkpt lat="46.71833" lon="6.2649">
        <ele>1170</ele>
        <time>2020-08-24T12:08:23Z</time>
      </trkpt>
      <trkpt lat="46.71836" lon="6.26499">
        <ele>1169</ele>
        <time>2020-08-24T12:09:13Z</time>
      </trkpt>
      <trkpt lat="46.71839" lon="6.26508">
        <ele>1169</ele>
        <time>2020-08-24T12:10:07Z</time>
      </trkpt>
      <trkpt lat="46.71844" lon="6.26529">
        <ele>1169</ele>
        <time>2020-08-24T12:10:41Z</time>
      </trkpt>
      <trkpt lat="46.71852" lon="6.26559">
        <ele>1168</ele>
        <time>2020-08-24T12:11:02Z</time>
      </trkpt>
      <trkpt lat="46.71851" lon="6.26567">
        <ele>1168</ele>
        <time>2020-08-24T12:11:07Z</time>
      </trkpt>
      <trkpt lat="46.71852" lon="6.26575">
        <ele>1168</ele>
        <time>2020-08-24T12:11:12Z</time>
      </trkpt>
      <trkpt lat="46.71857" lon="6.26586">
        <ele>1168</ele>
        <time>2020-08-24T12:11:20Z</time>
      </trkpt>
      <trkpt lat="46.71859" lon="6.26597">
        <ele>1168</ele>
        <time>2020-08-24T12:11:26Z</time>
      </trkpt>
      <trkpt lat="46.71864" lon="6.26615">
        <ele>1167</ele>
        <time>2020-08-24T12:11:39Z</time>
      </trkpt>
      <trkpt lat="46.71859" lon="6.2664">
        <ele>1167</ele>
        <time>2020-08-24T12:11:54Z</time>
      </trkpt>
      <trkpt lat="46.71854" lon="6.26646">
        <ele>1168</ele>
        <time>2020-08-24T12:11:59Z</time>
      </trkpt>
      <trkpt lat="46.71847" lon="6.26671">
        <ele>1169</ele>
        <time>2020-08-24T12:12:16Z</time>
      </trkpt>
      <trkpt lat="46.7185" lon="6.26678">
        <ele>1169</ele>
        <time>2020-08-24T12:12:22Z</time>
      </trkpt>
      <trkpt lat="46.7184" lon="6.26699">
        <ele>1170</ele>
        <time>2020-08-24T12:12:56Z</time>
      </trkpt>
      <trkpt lat="46.71833" lon="6.26717">
        <ele>1170</ele>
        <time>2020-08-24T12:13:11Z</time>
      </trkpt>
      <trkpt lat="46.71832" lon="6.26733">
        <ele>1170</ele>
        <time>2020-08-24T12:13:21Z</time>
      </trkpt>
      <trkpt lat="46.7183" lon="6.26741">
        <ele>1170</ele>
        <time>2020-08-24T12:13:27Z</time>
      </trkpt>
      <trkpt lat="46.71823" lon="6.26755">
        <ele>1168</ele>
        <time>2020-08-24T12:13:36Z</time>
      </trkpt>
      <trkpt lat="46.71825" lon="6.26771">
        <ele>1167</ele>
        <time>2020-08-24T12:13:48Z</time>
      </trkpt>
      <trkpt lat="46.71831" lon="6.26786">
        <ele>1166</ele>
        <time>2020-08-24T12:13:58Z</time>
      </trkpt>
      <trkpt lat="46.7183" lon="6.26797">
        <ele>1165</ele>
        <time>2020-08-24T12:14:35Z</time>
      </trkpt>
      <trkpt lat="46.71826" lon="6.26807">
        <ele>1164</ele>
        <time>2020-08-24T12:14:46Z</time>
      </trkpt>
      <trkpt lat="46.71825" lon="6.26816">
        <ele>1164</ele>
        <time>2020-08-24T12:14:53Z</time>
      </trkpt>
      <trkpt lat="46.71828" lon="6.26825">
        <ele>1165</ele>
        <time>2020-08-24T12:14:58Z</time>
      </trkpt>
      <trkpt lat="46.71829" lon="6.26836">
        <ele>1165</ele>
        <time>2020-08-24T12:15:04Z</time>
      </trkpt>
      <trkpt lat="46.71834" lon="6.26851">
        <ele>1166</ele>
        <time>2020-08-24T12:15:15Z</time>
      </trkpt>
      <trkpt lat="46.71836" lon="6.26859">
        <ele>1166</ele>
        <time>2020-08-24T12:15:20Z</time>
      </trkpt>
      <trkpt lat="46.71838" lon="6.26882">
        <ele>1167</ele>
        <time>2020-08-24T12:15:34Z</time>
      </trkpt>
      <trkpt lat="46.71841" lon="6.2689">
        <ele>1167</ele>
        <time>2020-08-24T12:15:39Z</time>
      </trkpt>
      <trkpt lat="46.71844" lon="6.26906">
        <ele>1168</ele>
        <time>2020-08-24T12:15:49Z</time>
      </trkpt>
      <trkpt lat="46.71849" lon="6.26952">
        <ele>1169</ele>
        <time>2020-08-24T12:16:18Z</time>
      </trkpt>
      <trkpt lat="46.71851" lon="6.26972">
        <ele>1169</ele>
        <time>2020-08-24T12:16:32Z</time>
      </trkpt>
      <trkpt lat="46.7185" lon="6.2698">
        <ele>1169</ele>
        <time>2020-08-24T12:16:37Z</time>
      </trkpt>
      <trkpt lat="46.7185" lon="6.26989">
        <ele>1169</ele>
        <time>2020-08-24T12:16:42Z</time>
      </trkpt>
      <trkpt lat="46.71849" lon="6.26997">
        <ele>1168</ele>
        <time>2020-08-24T12:16:50Z</time>
      </trkpt>
      <trkpt lat="46.71839" lon="6.2704">
        <ele>1172</ele>
        <time>2020-08-24T12:17:27Z</time>
      </trkpt>
      <trkpt lat="46.71833" lon="6.27042">
        <ele>1172</ele>
        <time>2020-08-24T12:17:33Z</time>
      </trkpt>
      <trkpt lat="46.71829" lon="6.27049">
        <ele>1173</ele>
        <time>2020-08-24T12:17:47Z</time>
      </trkpt>
      <trkpt lat="46.71833" lon="6.2706">
        <ele>1174</ele>
        <time>2020-08-24T12:18:13Z</time>
      </trkpt>
      <trkpt lat="46.71835" lon="6.27071">
        <ele>1174</ele>
        <time>2020-08-24T12:18:25Z</time>
      </trkpt>
      <trkpt lat="46.71836" lon="6.27091">
        <ele>1173</ele>
        <time>2020-08-24T12:18:54Z</time>
      </trkpt>
      <trkpt lat="46.71838" lon="6.27102">
        <ele>1173</ele>
        <time>2020-08-24T12:19:03Z</time>
      </trkpt>
      <trkpt lat="46.71842" lon="6.27109">
        <ele>1173</ele>
        <time>2020-08-24T12:19:08Z</time>
      </trkpt>
      <trkpt lat="46.71843" lon="6.27118">
        <ele>1174</ele>
        <time>2020-08-24T12:19:20Z</time>
      </trkpt>
      <trkpt lat="46.71851" lon="6.27133">
        <ele>1175</ele>
        <time>2020-08-24T12:19:45Z</time>
      </trkpt>
      <trkpt lat="46.71844" lon="6.27164">
        <ele>1176</ele>
        <time>2020-08-24T12:20:11Z</time>
      </trkpt>
      <trkpt lat="46.71842" lon="6.27172">
        <ele>1177</ele>
        <time>2020-08-24T12:20:21Z</time>
      </trkpt>
      <trkpt lat="46.7184" lon="6.27182">
        <ele>1177</ele>
        <time>2020-08-24T12:20:31Z</time>
      </trkpt>
      <trkpt lat="46.71842" lon="6.27189">
        <ele>1177</ele>
        <time>2020-08-24T12:20:45Z</time>
      </trkpt>
      <trkpt lat="46.71835" lon="6.27195">
        <ele>1179</ele>
        <time>2020-08-24T12:21:03Z</time>
      </trkpt>
      <trkpt lat="46.71829" lon="6.27199">
        <ele>1180</ele>
        <time>2020-08-24T12:21:12Z</time>
      </trkpt>
      <trkpt lat="46.71824" lon="6.27204">
        <ele>1180</ele>
        <time>2020-08-24T12:21:18Z</time>
      </trkpt>
      <trkpt lat="46.71818" lon="6.27204">
        <ele>1181</ele>
        <time>2020-08-24T12:21:25Z</time>
      </trkpt>
      <trkpt lat="46.71807" lon="6.2721">
        <ele>1183</ele>
        <time>2020-08-24T12:21:37Z</time>
      </trkpt>
      <trkpt lat="46.7178" lon="6.27227">
        <ele>1189</ele>
        <time>2020-08-24T12:22:20Z</time>
      </trkpt>
      <trkpt lat="46.71772" lon="6.27224">
        <ele>1192</ele>
        <time>2020-08-24T12:22:32Z</time>
      </trkpt>
      <trkpt lat="46.71762" lon="6.27229">
        <ele>1194</ele>
        <time>2020-08-24T12:22:46Z</time>
      </trkpt>
      <trkpt lat="46.71752" lon="6.27232">
        <ele>1196</ele>
        <time>2020-08-24T12:23:01Z</time>
      </trkpt>
      <trkpt lat="46.71744" lon="6.27236">
        <ele>1197</ele>
        <time>2020-08-24T12:23:08Z</time>
      </trkpt>
      <trkpt lat="46.71738" lon="6.27243">
        <ele>1198</ele>
        <time>2020-08-24T12:23:15Z</time>
      </trkpt>
      <trkpt lat="46.71729" lon="6.27252">
        <ele>1200</ele>
        <time>2020-08-24T12:23:32Z</time>
      </trkpt>
      <trkpt lat="46.71724" lon="6.27259">
        <ele>1200</ele>
        <time>2020-08-24T12:23:37Z</time>
      </trkpt>
      <trkpt lat="46.71717" lon="6.27265">
        <ele>1201</ele>
        <time>2020-08-24T12:23:43Z</time>
      </trkpt>
      <trkpt lat="46.71713" lon="6.27272">
        <ele>1202</ele>
        <time>2020-08-24T12:23:51Z</time>
      </trkpt>
      <trkpt lat="46.71699" lon="6.27285">
        <ele>1205</ele>
        <time>2020-08-24T12:24:13Z</time>
      </trkpt>
      <trkpt lat="46.7169" lon="6.27286">
        <ele>1208</ele>
        <time>2020-08-24T12:24:31Z</time>
      </trkpt>
      <trkpt lat="46.71684" lon="6.27293">
        <ele>1209</ele>
        <time>2020-08-24T12:24:39Z</time>
      </trkpt>
      <trkpt lat="46.7168" lon="6.273">
        <ele>1209</ele>
        <time>2020-08-24T12:24:45Z</time>
      </trkpt>
      <trkpt lat="46.71676" lon="6.27304">
        <ele>1209</ele>
        <time>2020-08-24T12:24:51Z</time>
      </trkpt>
      <trkpt lat="46.71671" lon="6.27313">
        <ele>1209</ele>
        <time>2020-08-24T12:24:59Z</time>
      </trkpt>
      <trkpt lat="46.71665" lon="6.2732">
        <ele>1209</ele>
        <time>2020-08-24T12:25:07Z</time>
      </trkpt>
      <trkpt lat="46.71652" lon="6.27333">
        <ele>1210</ele>
        <time>2020-08-24T12:25:23Z</time>
      </trkpt>
      <trkpt lat="46.71642" lon="6.27351">
        <ele>1212</ele>
        <time>2020-08-24T12:25:36Z</time>
      </trkpt>
      <trkpt lat="46.71634" lon="6.27356">
        <ele>1216</ele>
        <time>2020-08-24T12:25:56Z</time>
      </trkpt>
      <trkpt lat="46.71627" lon="6.27366">
        <ele>1217</ele>
        <time>2020-08-24T12:26:04Z</time>
      </trkpt>
      <trkpt lat="46.71625" lon="6.27376">
        <ele>1219</ele>
        <time>2020-08-24T12:26:19Z</time>
      </trkpt>
      <trkpt lat="46.7162" lon="6.27388">
        <ele>1220</ele>
        <time>2020-08-24T12:26:26Z</time>
      </trkpt>
      <trkpt lat="46.71604" lon="6.27405">
        <ele>1221</ele>
        <time>2020-08-24T12:26:43Z</time>
      </trkpt>
      <trkpt lat="46.71601" lon="6.27411">
        <ele>1221</ele>
        <time>2020-08-24T12:26:48Z</time>
      </trkpt>
      <trkpt lat="46.71602" lon="6.27422">
        <ele>1221</ele>
        <time>2020-08-24T12:27:15Z</time>
      </trkpt>
      <trkpt lat="46.71602" lon="6.27435">
        <ele>1221</ele>
        <time>2020-08-24T12:27:39Z</time>
      </trkpt>
      <trkpt lat="46.71609" lon="6.27438">
        <ele>1222</ele>
        <time>2020-08-24T12:28:30Z</time>
      </trkpt>
      <trkpt lat="46.71617" lon="6.27433">
        <ele>1222</ele>
        <time>2020-08-24T12:29:06Z</time>
      </trkpt>
      <trkpt lat="46.71616" lon="6.27447">
        <ele>1222</ele>
        <time>2020-08-24T12:29:50Z</time>
      </trkpt>
      <trkpt lat="46.71603" lon="6.27419">
        <ele>1222</ele>
        <time>2020-08-24T12:31:11Z</time>
      </trkpt>
      <trkpt lat="46.71603" lon="6.27431">
        <ele>1221</ele>
        <time>2020-08-24T12:32:05Z</time>
      </trkpt>
      <trkpt lat="46.71604" lon="6.2744">
        <ele>1221</ele>
        <time>2020-08-24T12:32:31Z</time>
      </trkpt>
      <trkpt lat="46.71607" lon="6.27449">
        <ele>1221</ele>
        <time>2020-08-24T12:32:43Z</time>
      </trkpt>
      <trkpt lat="46.71596" lon="6.27451">
        <ele>1222</ele>
        <time>2020-08-24T12:35:08Z</time>
      </trkpt>
      <trkpt lat="46.71591" lon="6.27455">
        <ele>1222</ele>
        <time>2020-08-24T12:35:11Z</time>
      </trkpt>
      <trkpt lat="46.71582" lon="6.27467">
        <ele>1221</ele>
        <time>2020-08-24T12:35:21Z</time>
      </trkpt>
      <trkpt lat="46.71565" lon="6.27487">
        <ele>1221</ele>
        <time>2020-08-24T12:35:43Z</time>
      </trkpt>
      <trkpt lat="46.71556" lon="6.27509">
        <ele>1220</ele>
        <time>2020-08-24T12:35:53Z</time>
      </trkpt>
      <trkpt lat="46.71554" lon="6.27536">
        <ele>1219</ele>
        <time>2020-08-24T12:36:10Z</time>
      </trkpt>
      <trkpt lat="46.71554" lon="6.27548">
        <ele>1218</ele>
        <time>2020-08-24T12:36:22Z</time>
      </trkpt>
      <trkpt lat="46.71552" lon="6.27557">
        <ele>1217</ele>
        <time>2020-08-24T12:36:27Z</time>
      </trkpt>
      <trkpt lat="46.71553" lon="6.27566">
        <ele>1217</ele>
        <time>2020-08-24T12:36:34Z</time>
      </trkpt>
      <trkpt lat="46.71552" lon="6.27577">
        <ele>1217</ele>
        <time>2020-08-24T12:36:41Z</time>
      </trkpt>
      <trkpt lat="46.7155" lon="6.27587">
        <ele>1217</ele>
        <time>2020-08-24T12:36:48Z</time>
      </trkpt>
      <trkpt lat="46.71547" lon="6.27597">
        <ele>1218</ele>
        <time>2020-08-24T12:36:58Z</time>
      </trkpt>
      <trkpt lat="46.71547" lon="6.27615">
        <ele>1218</ele>
        <time>2020-08-24T12:37:06Z</time>
      </trkpt>
      <trkpt lat="46.71549" lon="6.27622">
        <ele>1218</ele>
        <time>2020-08-24T12:37:10Z</time>
      </trkpt>
      <trkpt lat="46.71548" lon="6.27641">
        <ele>1218</ele>
        <time>2020-08-24T12:37:24Z</time>
      </trkpt>
      <trkpt lat="46.71545" lon="6.27685">
        <ele>1220</ele>
        <time>2020-08-24T12:37:54Z</time>
      </trkpt>
      <trkpt lat="46.71543" lon="6.27718">
        <ele>1218</ele>
        <time>2020-08-24T12:38:13Z</time>
      </trkpt>
      <trkpt lat="46.71545" lon="6.27727">
        <ele>1218</ele>
        <time>2020-08-24T12:38:18Z</time>
      </trkpt>
      <trkpt lat="46.71545" lon="6.27736">
        <ele>1218</ele>
        <time>2020-08-24T12:38:22Z</time>
      </trkpt>
      <trkpt lat="46.71542" lon="6.27743">
        <ele>1217</ele>
        <time>2020-08-24T12:38:26Z</time>
      </trkpt>
      <trkpt lat="46.71542" lon="6.27752">
        <ele>1216</ele>
        <time>2020-08-24T12:38:34Z</time>
      </trkpt>
      <trkpt lat="46.71539" lon="6.2776">
        <ele>1216</ele>
        <time>2020-08-24T12:38:39Z</time>
      </trkpt>
      <trkpt lat="46.71541" lon="6.27778">
        <ele>1215</ele>
        <time>2020-08-24T12:38:49Z</time>
      </trkpt>
      <trkpt lat="46.71543" lon="6.27786">
        <ele>1214</ele>
        <time>2020-08-24T12:38:54Z</time>
      </trkpt>
      <trkpt lat="46.71543" lon="6.27804">
        <ele>1214</ele>
        <time>2020-08-24T12:39:03Z</time>
      </trkpt>
      <trkpt lat="46.71541" lon="6.27814">
        <ele>1213</ele>
        <time>2020-08-24T12:39:11Z</time>
      </trkpt>
      <trkpt lat="46.71544" lon="6.27828">
        <ele>1212</ele>
        <time>2020-08-24T12:39:22Z</time>
      </trkpt>
      <trkpt lat="46.71547" lon="6.27847">
        <ele>1211</ele>
        <time>2020-08-24T12:39:34Z</time>
      </trkpt>
      <trkpt lat="46.71547" lon="6.27857">
        <ele>1211</ele>
        <time>2020-08-24T12:39:42Z</time>
      </trkpt>
      <trkpt lat="46.71564" lon="6.27875">
        <ele>1210</ele>
        <time>2020-08-24T12:39:59Z</time>
      </trkpt>
      <trkpt lat="46.7157" lon="6.2789">
        <ele>1209</ele>
        <time>2020-08-24T12:40:10Z</time>
      </trkpt>
      <trkpt lat="46.71573" lon="6.27898">
        <ele>1209</ele>
        <time>2020-08-24T12:40:14Z</time>
      </trkpt>
      <trkpt lat="46.71582" lon="6.27912">
        <ele>1209</ele>
        <time>2020-08-24T12:40:24Z</time>
      </trkpt>
      <trkpt lat="46.71593" lon="6.27919">
        <ele>1210</ele>
        <time>2020-08-24T12:40:35Z</time>
      </trkpt>
      <trkpt lat="46.71598" lon="6.27926">
        <ele>1210</ele>
        <time>2020-08-24T12:40:42Z</time>
      </trkpt>
      <trkpt lat="46.71609" lon="6.27932">
        <ele>1209</ele>
        <time>2020-08-24T12:40:52Z</time>
      </trkpt>
      <trkpt lat="46.71639" lon="6.27963">
        <ele>1207</ele>
        <time>2020-08-24T12:41:23Z</time>
      </trkpt>
      <trkpt lat="46.71642" lon="6.27972">
        <ele>1207</ele>
        <time>2020-08-24T12:41:31Z</time>
      </trkpt>
      <trkpt lat="46.71647" lon="6.2798">
        <ele>1208</ele>
        <time>2020-08-24T12:41:39Z</time>
      </trkpt>
      <trkpt lat="46.71654" lon="6.27995">
        <ele>1208</ele>
        <time>2020-08-24T12:41:55Z</time>
      </trkpt>
      <trkpt lat="46.71656" lon="6.28005">
        <ele>1208</ele>
        <time>2020-08-24T12:42:07Z</time>
      </trkpt>
      <trkpt lat="46.71663" lon="6.28028">
        <ele>1210</ele>
        <time>2020-08-24T12:42:24Z</time>
      </trkpt>
      <trkpt lat="46.71665" lon="6.28037">
        <ele>1210</ele>
        <time>2020-08-24T12:42:29Z</time>
      </trkpt>
      <trkpt lat="46.71672" lon="6.2805">
        <ele>1210</ele>
        <time>2020-08-24T12:42:38Z</time>
      </trkpt>
      <trkpt lat="46.71676" lon="6.28086">
        <ele>1209</ele>
        <time>2020-08-24T12:43:05Z</time>
      </trkpt>
      <trkpt lat="46.7168" lon="6.28139">
        <ele>1207</ele>
        <time>2020-08-24T12:43:39Z</time>
      </trkpt>
      <trkpt lat="46.71685" lon="6.28169">
        <ele>1205</ele>
        <time>2020-08-24T12:43:57Z</time>
      </trkpt>
      <trkpt lat="46.71694" lon="6.28219">
        <ele>1204</ele>
        <time>2020-08-24T12:44:29Z</time>
      </trkpt>
      <trkpt lat="46.71695" lon="6.28269">
        <ele>1202</ele>
        <time>2020-08-24T12:44:59Z</time>
      </trkpt>
      <trkpt lat="46.71684" lon="6.28307">
        <ele>1201</ele>
        <time>2020-08-24T12:45:27Z</time>
      </trkpt>
      <trkpt lat="46.71684" lon="6.28316">
        <ele>1201</ele>
        <time>2020-08-24T12:45:33Z</time>
      </trkpt>
      <trkpt lat="46.71684" lon="6.28325">
        <ele>1201</ele>
        <time>2020-08-24T12:45:38Z</time>
      </trkpt>
      <trkpt lat="46.71675" lon="6.28358">
        <ele>1200</ele>
        <time>2020-08-24T12:45:59Z</time>
      </trkpt>
      <trkpt lat="46.71677" lon="6.28377">
        <ele>1199</ele>
        <time>2020-08-24T12:46:10Z</time>
      </trkpt>
      <trkpt lat="46.71676" lon="6.28385">
        <ele>1198</ele>
        <time>2020-08-24T12:46:15Z</time>
      </trkpt>
      <trkpt lat="46.7168" lon="6.28394">
        <ele>1198</ele>
        <time>2020-08-24T12:46:18Z</time>
      </trkpt>
      <trkpt lat="46.71687" lon="6.284">
        <ele>1198</ele>
        <time>2020-08-24T12:46:20Z</time>
      </trkpt>
      <trkpt lat="46.71686" lon="6.28408">
        <ele>1198</ele>
        <time>2020-08-24T12:46:34Z</time>
      </trkpt>
      <trkpt lat="46.71687" lon="6.28417">
        <ele>1198</ele>
        <time>2020-08-24T12:46:52Z</time>
      </trkpt>
      <trkpt lat="46.71685" lon="6.28426">
        <ele>1198</ele>
        <time>2020-08-24T12:46:57Z</time>
      </trkpt>
      <trkpt lat="46.71685" lon="6.28453">
        <ele>1198</ele>
        <time>2020-08-24T12:47:18Z</time>
      </trkpt>
      <trkpt lat="46.71688" lon="6.28462">
        <ele>1197</ele>
        <time>2020-08-24T12:47:25Z</time>
      </trkpt>
      <trkpt lat="46.71688" lon="6.28474">
        <ele>1197</ele>
        <time>2020-08-24T12:47:30Z</time>
      </trkpt>
      <trkpt lat="46.71686" lon="6.28481">
        <ele>1196</ele>
        <time>2020-08-24T12:47:36Z</time>
      </trkpt>
      <trkpt lat="46.71685" lon="6.28494">
        <ele>1196</ele>
        <time>2020-08-24T12:47:45Z</time>
      </trkpt>
      <trkpt lat="46.71687" lon="6.28501">
        <ele>1195</ele>
        <time>2020-08-24T12:47:50Z</time>
      </trkpt>
      <trkpt lat="46.71686" lon="6.2851">
        <ele>1195</ele>
        <time>2020-08-24T12:47:54Z</time>
      </trkpt>
      <trkpt lat="46.71687" lon="6.28517">
        <ele>1195</ele>
        <time>2020-08-24T12:47:58Z</time>
      </trkpt>
      <trkpt lat="46.7169" lon="6.28524">
        <ele>1194</ele>
        <time>2020-08-24T12:48:03Z</time>
      </trkpt>
      <trkpt lat="46.71686" lon="6.28539">
        <ele>1194</ele>
        <time>2020-08-24T12:48:14Z</time>
      </trkpt>
      <trkpt lat="46.71692" lon="6.28584">
        <ele>1193</ele>
        <time>2020-08-24T12:48:42Z</time>
      </trkpt>
      <trkpt lat="46.71691" lon="6.28605">
        <ele>1194</ele>
        <time>2020-08-24T12:48:56Z</time>
      </trkpt>
      <trkpt lat="46.71682" lon="6.28633">
        <ele>1193</ele>
        <time>2020-08-24T12:49:42Z</time>
      </trkpt>
      <trkpt lat="46.7168" lon="6.28647">
        <ele>1193</ele>
        <time>2020-08-24T12:49:51Z</time>
      </trkpt>
      <trkpt lat="46.71673" lon="6.28665">
        <ele>1192</ele>
        <time>2020-08-24T12:50:00Z</time>
      </trkpt>
      <trkpt lat="46.71668" lon="6.2867">
        <ele>1192</ele>
        <time>2020-08-24T12:50:07Z</time>
      </trkpt>
      <trkpt lat="46.71661" lon="6.28674">
        <ele>1192</ele>
        <time>2020-08-24T12:50:16Z</time>
      </trkpt>
      <trkpt lat="46.71642" lon="6.28691">
        <ele>1189</ele>
        <time>2020-08-24T12:50:35Z</time>
      </trkpt>
      <trkpt lat="46.71632" lon="6.28732">
        <ele>1188</ele>
        <time>2020-08-24T12:51:01Z</time>
      </trkpt>
      <trkpt lat="46.71627" lon="6.28742">
        <ele>1188</ele>
        <time>2020-08-24T12:51:09Z</time>
      </trkpt>
      <trkpt lat="46.71624" lon="6.28762">
        <ele>1188</ele>
        <time>2020-08-24T12:51:19Z</time>
      </trkpt>
      <trkpt lat="46.71624" lon="6.28798">
        <ele>1187</ele>
        <time>2020-08-24T12:51:40Z</time>
      </trkpt>
      <trkpt lat="46.71625" lon="6.28806">
        <ele>1187</ele>
        <time>2020-08-24T12:51:44Z</time>
      </trkpt>
      <trkpt lat="46.71622" lon="6.2884">
        <ele>1186</ele>
        <time>2020-08-24T12:52:03Z</time>
      </trkpt>
      <trkpt lat="46.71622" lon="6.28851">
        <ele>1186</ele>
        <time>2020-08-24T12:52:11Z</time>
      </trkpt>
      <trkpt lat="46.71621" lon="6.28885">
        <ele>1185</ele>
        <time>2020-08-24T12:52:31Z</time>
      </trkpt>
      <trkpt lat="46.71622" lon="6.28895">
        <ele>1185</ele>
        <time>2020-08-24T12:52:37Z</time>
      </trkpt>
      <trkpt lat="46.71626" lon="6.28905">
        <ele>1185</ele>
        <time>2020-08-24T12:52:42Z</time>
      </trkpt>
      <trkpt lat="46.71627" lon="6.28916">
        <ele>1185</ele>
        <time>2020-08-24T12:52:50Z</time>
      </trkpt>
      <trkpt lat="46.71631" lon="6.28922">
        <ele>1185</ele>
        <time>2020-08-24T12:52:58Z</time>
      </trkpt>
      <trkpt lat="46.71632" lon="6.28939">
        <ele>1185</ele>
        <time>2020-08-24T12:53:05Z</time>
      </trkpt>
      <trkpt lat="46.71632" lon="6.28947">
        <ele>1185</ele>
        <time>2020-08-24T12:53:11Z</time>
      </trkpt>
      <trkpt lat="46.71636" lon="6.28976">
        <ele>1185</ele>
        <time>2020-08-24T12:53:27Z</time>
      </trkpt>
      <trkpt lat="46.71637" lon="6.28994">
        <ele>1185</ele>
        <time>2020-08-24T12:53:37Z</time>
      </trkpt>
      <trkpt lat="46.71645" lon="6.29018">
        <ele>1185</ele>
        <time>2020-08-24T12:53:50Z</time>
      </trkpt>
      <trkpt lat="46.71646" lon="6.29025">
        <ele>1185</ele>
        <time>2020-08-24T12:53:55Z</time>
      </trkpt>
      <trkpt lat="46.7165" lon="6.29043">
        <ele>1185</ele>
        <time>2020-08-24T12:54:05Z</time>
      </trkpt>
      <trkpt lat="46.71653" lon="6.2906">
        <ele>1185</ele>
        <time>2020-08-24T12:54:13Z</time>
      </trkpt>
      <trkpt lat="46.71656" lon="6.29066">
        <ele>1185</ele>
        <time>2020-08-24T12:54:17Z</time>
      </trkpt>
      <trkpt lat="46.71658" lon="6.29078">
        <ele>1185</ele>
        <time>2020-08-24T12:54:25Z</time>
      </trkpt>
      <trkpt lat="46.71659" lon="6.29105">
        <ele>1185</ele>
        <time>2020-08-24T12:54:40Z</time>
      </trkpt>
      <trkpt lat="46.71664" lon="6.2912">
        <ele>1185</ele>
        <time>2020-08-24T12:54:48Z</time>
      </trkpt>
      <trkpt lat="46.71668" lon="6.29128">
        <ele>1185</ele>
        <time>2020-08-24T12:54:54Z</time>
      </trkpt>
      <trkpt lat="46.7167" lon="6.29144">
        <ele>1185</ele>
        <time>2020-08-24T12:55:07Z</time>
      </trkpt>
      <trkpt lat="46.71675" lon="6.29161">
        <ele>1185</ele>
        <time>2020-08-24T12:55:17Z</time>
      </trkpt>
      <trkpt lat="46.71684" lon="6.29183">
        <ele>1185</ele>
        <time>2020-08-24T12:55:31Z</time>
      </trkpt>
      <trkpt lat="46.71686" lon="6.29192">
        <ele>1185</ele>
        <time>2020-08-24T12:55:39Z</time>
      </trkpt>
      <trkpt lat="46.71691" lon="6.29202">
        <ele>1185</ele>
        <time>2020-08-24T12:55:49Z</time>
      </trkpt>
      <trkpt lat="46.71687" lon="6.29221">
        <ele>1184</ele>
        <time>2020-08-24T12:56:09Z</time>
      </trkpt>
      <trkpt lat="46.71688" lon="6.2923">
        <ele>1183</ele>
        <time>2020-08-24T12:56:14Z</time>
      </trkpt>
      <trkpt lat="46.71685" lon="6.29242">
        <ele>1183</ele>
        <time>2020-08-24T12:56:46Z</time>
      </trkpt>
      <trkpt lat="46.71709" lon="6.29199">
        <ele>1183</ele>
        <time>2020-08-24T12:57:55Z</time>
      </trkpt>
      <trkpt lat="46.7168" lon="6.29212">
        <ele>1184</ele>
        <time>2020-08-24T13:01:44Z</time>
      </trkpt>
      <trkpt lat="46.71697" lon="6.29256">
        <ele>1184</ele>
        <time>2020-08-24T13:03:01Z</time>
      </trkpt>
      <trkpt lat="46.71687" lon="6.29262">
        <ele>1179</ele>
        <time>2020-08-24T13:10:03Z</time>
      </trkpt>
      <trkpt lat="46.71685" lon="6.29278">
        <ele>1178</ele>
        <time>2020-08-24T13:10:15Z</time>
      </trkpt>
      <trkpt lat="46.71689" lon="6.2929">
        <ele>1177</ele>
        <time>2020-08-24T13:10:27Z</time>
      </trkpt>
      <trkpt lat="46.71694" lon="6.29297">
        <ele>1176</ele>
        <time>2020-08-24T13:10:45Z</time>
      </trkpt>
      <trkpt lat="46.71714" lon="6.29319">
        <ele>1176</ele>
        <time>2020-08-24T13:11:12Z</time>
      </trkpt>
      <trkpt lat="46.71723" lon="6.29336">
        <ele>1175</ele>
        <time>2020-08-24T13:11:38Z</time>
      </trkpt>
      <trkpt lat="46.7174" lon="6.29363">
        <ele>1175</ele>
        <time>2020-08-24T13:11:59Z</time>
      </trkpt>
      <trkpt lat="46.71749" lon="6.29373">
        <ele>1175</ele>
        <time>2020-08-24T13:12:08Z</time>
      </trkpt>
      <trkpt lat="46.71754" lon="6.29387">
        <ele>1177</ele>
        <time>2020-08-24T13:12:18Z</time>
      </trkpt>
      <trkpt lat="46.71759" lon="6.29397">
        <ele>1177</ele>
        <time>2020-08-24T13:12:26Z</time>
      </trkpt>
      <trkpt lat="46.71764" lon="6.29406">
        <ele>1177</ele>
        <time>2020-08-24T13:12:34Z</time>
      </trkpt>
      <trkpt lat="46.71768" lon="6.29413">
        <ele>1176</ele>
        <time>2020-08-24T13:12:39Z</time>
      </trkpt>
      <trkpt lat="46.71772" lon="6.29419">
        <ele>1175</ele>
        <time>2020-08-24T13:12:44Z</time>
      </trkpt>
      <trkpt lat="46.71776" lon="6.29424">
        <ele>1176</ele>
        <time>2020-08-24T13:12:48Z</time>
      </trkpt>
      <trkpt lat="46.71787" lon="6.29436">
        <ele>1175</ele>
        <time>2020-08-24T13:13:02Z</time>
      </trkpt>
      <trkpt lat="46.71791" lon="6.29443">
        <ele>1175</ele>
        <time>2020-08-24T13:13:08Z</time>
      </trkpt>
      <trkpt lat="46.718" lon="6.29453">
        <ele>1175</ele>
        <time>2020-08-24T13:13:17Z</time>
      </trkpt>
      <trkpt lat="46.71808" lon="6.29476">
        <ele>1174</ele>
        <time>2020-08-24T13:13:32Z</time>
      </trkpt>
      <trkpt lat="46.71828" lon="6.29515">
        <ele>1174</ele>
        <time>2020-08-24T13:14:03Z</time>
      </trkpt>
      <trkpt lat="46.71848" lon="6.29555">
        <ele>1174</ele>
        <time>2020-08-24T13:14:32Z</time>
      </trkpt>
      <trkpt lat="46.71862" lon="6.29574">
        <ele>1174</ele>
        <time>2020-08-24T13:14:52Z</time>
      </trkpt>
      <trkpt lat="46.71864" lon="6.29582">
        <ele>1174</ele>
        <time>2020-08-24T13:14:59Z</time>
      </trkpt>
      <trkpt lat="46.71868" lon="6.29589">
        <ele>1174</ele>
        <time>2020-08-24T13:15:04Z</time>
      </trkpt>
      <trkpt lat="46.71871" lon="6.29597">
        <ele>1174</ele>
        <time>2020-08-24T13:15:10Z</time>
      </trkpt>
      <trkpt lat="46.71874" lon="6.29603">
        <ele>1174</ele>
        <time>2020-08-24T13:15:15Z</time>
      </trkpt>
      <trkpt lat="46.71885" lon="6.29652">
        <ele>1174</ele>
        <time>2020-08-24T13:15:43Z</time>
      </trkpt>
      <trkpt lat="46.71891" lon="6.29666">
        <ele>1174</ele>
        <time>2020-08-24T13:15:53Z</time>
      </trkpt>
      <trkpt lat="46.71894" lon="6.29675">
        <ele>1174</ele>
        <time>2020-08-24T13:15:59Z</time>
      </trkpt>
      <trkpt lat="46.71902" lon="6.29689">
        <ele>1174</ele>
        <time>2020-08-24T13:16:08Z</time>
      </trkpt>
      <trkpt lat="46.71919" lon="6.29731">
        <ele>1171</ele>
        <time>2020-08-24T13:16:39Z</time>
      </trkpt>
      <trkpt lat="46.7193" lon="6.29759">
        <ele>1169</ele>
        <time>2020-08-24T13:17:00Z</time>
      </trkpt>
      <trkpt lat="46.71931" lon="6.29769">
        <ele>1169</ele>
        <time>2020-08-24T13:17:06Z</time>
      </trkpt>
      <trkpt lat="46.71935" lon="6.29783">
        <ele>1169</ele>
        <time>2020-08-24T13:17:14Z</time>
      </trkpt>
      <trkpt lat="46.71938" lon="6.29791">
        <ele>1169</ele>
        <time>2020-08-24T13:17:18Z</time>
      </trkpt>
      <trkpt lat="46.71941" lon="6.29798">
        <ele>1168</ele>
        <time>2020-08-24T13:17:22Z</time>
      </trkpt>
      <trkpt lat="46.71974" lon="6.29831">
        <ele>1167</ele>
        <time>2020-08-24T13:17:55Z</time>
      </trkpt>
      <trkpt lat="46.71985" lon="6.2984">
        <ele>1167</ele>
        <time>2020-08-24T13:18:07Z</time>
      </trkpt>
      <trkpt lat="46.7199" lon="6.29847">
        <ele>1166</ele>
        <time>2020-08-24T13:18:12Z</time>
      </trkpt>
      <trkpt lat="46.71997" lon="6.29861">
        <ele>1166</ele>
        <time>2020-08-24T13:18:21Z</time>
      </trkpt>
      <trkpt lat="46.7202" lon="6.2989">
        <ele>1163</ele>
        <time>2020-08-24T13:18:49Z</time>
      </trkpt>
      <trkpt lat="46.72045" lon="6.29911">
        <ele>1158</ele>
        <time>2020-08-24T13:19:21Z</time>
      </trkpt>
      <trkpt lat="46.72057" lon="6.29922">
        <ele>1157</ele>
        <time>2020-08-24T13:19:33Z</time>
      </trkpt>
      <trkpt lat="46.72072" lon="6.29927">
        <ele>1156</ele>
        <time>2020-08-24T13:19:46Z</time>
      </trkpt>
      <trkpt lat="46.72096" lon="6.29927">
        <ele>1155</ele>
        <time>2020-08-24T13:20:03Z</time>
      </trkpt>
      <trkpt lat="46.72101" lon="6.29931">
        <ele>1155</ele>
        <time>2020-08-24T13:20:09Z</time>
      </trkpt>
      <trkpt lat="46.7212" lon="6.2993">
        <ele>1155</ele>
        <time>2020-08-24T13:20:22Z</time>
      </trkpt>
      <trkpt lat="46.72134" lon="6.29927">
        <ele>1155</ele>
        <time>2020-08-24T13:20:43Z</time>
      </trkpt>
      <trkpt lat="46.7214" lon="6.29928">
        <ele>1154</ele>
        <time>2020-08-24T13:20:54Z</time>
      </trkpt>
      <trkpt lat="46.72145" lon="6.29932">
        <ele>1154</ele>
        <time>2020-08-24T13:20:58Z</time>
      </trkpt>
      <trkpt lat="46.72152" lon="6.29931">
        <ele>1155</ele>
        <time>2020-08-24T13:21:29Z</time>
      </trkpt>
      <trkpt lat="46.72183" lon="6.29932">
        <ele>1154</ele>
        <time>2020-08-24T13:21:55Z</time>
      </trkpt>
      <trkpt lat="46.7219" lon="6.29929">
        <ele>1154</ele>
        <time>2020-08-24T13:22:02Z</time>
      </trkpt>
      <trkpt lat="46.72202" lon="6.29929">
        <ele>1154</ele>
        <time>2020-08-24T13:22:10Z</time>
      </trkpt>
      <trkpt lat="46.72213" lon="6.29934">
        <ele>1154</ele>
        <time>2020-08-24T13:22:19Z</time>
      </trkpt>
      <trkpt lat="46.72219" lon="6.29933">
        <ele>1153</ele>
        <time>2020-08-24T13:22:23Z</time>
      </trkpt>
      <trkpt lat="46.72235" lon="6.29926">
        <ele>1153</ele>
        <time>2020-08-24T13:22:37Z</time>
      </trkpt>
      <trkpt lat="46.7224" lon="6.2992">
        <ele>1153</ele>
        <time>2020-08-24T13:22:45Z</time>
      </trkpt>
      <trkpt lat="46.72247" lon="6.29921">
        <ele>1152</ele>
        <time>2020-08-24T13:22:51Z</time>
      </trkpt>
      <trkpt lat="46.72262" lon="6.29916">
        <ele>1152</ele>
        <time>2020-08-24T13:23:07Z</time>
      </trkpt>
      <trkpt lat="46.72279" lon="6.29919">
        <ele>1151</ele>
        <time>2020-08-24T13:23:20Z</time>
      </trkpt>
      <trkpt lat="46.72284" lon="6.29915">
        <ele>1151</ele>
        <time>2020-08-24T13:23:28Z</time>
      </trkpt>
      <trkpt lat="46.72296" lon="6.29911">
        <ele>1151</ele>
        <time>2020-08-24T13:23:38Z</time>
      </trkpt>
      <trkpt lat="46.72302" lon="6.29909">
        <ele>1151</ele>
        <time>2020-08-24T13:23:42Z</time>
      </trkpt>
      <trkpt lat="46.72313" lon="6.29911">
        <ele>1151</ele>
        <time>2020-08-24T13:23:50Z</time>
      </trkpt>
      <trkpt lat="46.72336" lon="6.29906">
        <ele>1149</ele>
        <time>2020-08-24T13:24:12Z</time>
      </trkpt>
      <trkpt lat="46.7234" lon="6.29903">
        <ele>1149</ele>
        <time>2020-08-24T13:24:18Z</time>
      </trkpt>
      <trkpt lat="46.72349" lon="6.29902">
        <ele>1149</ele>
        <time>2020-08-24T13:24:25Z</time>
      </trkpt>
      <trkpt lat="46.72361" lon="6.29895">
        <ele>1148</ele>
        <time>2020-08-24T13:24:33Z</time>
      </trkpt>
      <trkpt lat="46.72372" lon="6.29892">
        <ele>1148</ele>
        <time>2020-08-24T13:24:42Z</time>
      </trkpt>
      <trkpt lat="46.72384" lon="6.29886">
        <ele>1148</ele>
        <time>2020-08-24T13:24:52Z</time>
      </trkpt>
      <trkpt lat="46.72388" lon="6.29881">
        <ele>1148</ele>
        <time>2020-08-24T13:24:58Z</time>
      </trkpt>
      <trkpt lat="46.72409" lon="6.29874">
        <ele>1148</ele>
        <time>2020-08-24T13:25:20Z</time>
      </trkpt>
      <trkpt lat="46.72444" lon="6.29859">
        <ele>1149</ele>
        <time>2020-08-24T13:25:56Z</time>
      </trkpt>
      <trkpt lat="46.72455" lon="6.29858">
        <ele>1148</ele>
        <time>2020-08-24T13:26:09Z</time>
      </trkpt>
      <trkpt lat="46.72466" lon="6.29852">
        <ele>1148</ele>
        <time>2020-08-24T13:26:20Z</time>
      </trkpt>
      <trkpt lat="46.72472" lon="6.29855">
        <ele>1147</ele>
        <time>2020-08-24T13:26:30Z</time>
      </trkpt>
      <trkpt lat="46.7248" lon="6.29864">
        <ele>1146</ele>
        <time>2020-08-24T13:26:47Z</time>
      </trkpt>
      <trkpt lat="46.72487" lon="6.29865">
        <ele>1147</ele>
        <time>2020-08-24T13:27:31Z</time>
      </trkpt>
      <trkpt lat="46.72489" lon="6.29852">
        <ele>1148</ele>
        <time>2020-08-24T13:28:43Z</time>
      </trkpt>
      <trkpt lat="46.72481" lon="6.29855">
        <ele>1148</ele>
        <time>2020-08-24T13:29:37Z</time>
      </trkpt>
      <trkpt lat="46.72486" lon="6.29863">
        <ele>1149</ele>
        <time>2020-08-24T13:30:23Z</time>
      </trkpt>
      <trkpt lat="46.72489" lon="6.29852">
        <ele>1150</ele>
        <time>2020-08-24T13:32:03Z</time>
      </trkpt>
      <trkpt lat="46.72494" lon="6.29838">
        <ele>1150</ele>
        <time>2020-08-24T13:32:15Z</time>
      </trkpt>
      <trkpt lat="46.72493" lon="6.2983">
        <ele>1149</ele>
        <time>2020-08-24T13:32:23Z</time>
      </trkpt>
      <trkpt lat="46.72488" lon="6.29825">
        <ele>1149</ele>
        <time>2020-08-24T13:33:05Z</time>
      </trkpt>
      <trkpt lat="46.72481" lon="6.29829">
        <ele>1149</ele>
        <time>2020-08-24T13:33:10Z</time>
      </trkpt>
      <trkpt lat="46.72477" lon="6.29838">
        <ele>1149</ele>
        <time>2020-08-24T13:33:22Z</time>
      </trkpt>
      <trkpt lat="46.72476" lon="6.29846">
        <ele>1149</ele>
        <time>2020-08-24T13:33:34Z</time>
      </trkpt>
      <trkpt lat="46.7248" lon="6.29858">
        <ele>1149</ele>
        <time>2020-08-24T13:33:46Z</time>
      </trkpt>
    </trkseg>
  </trk>
</gpx>